<?xml version="1.0" encoding="UTF-8" standalone="no" ?>
<gpx xmlns="http://www.topografix.com/GPX/1/1" xmlns:xsi="http://www.w3.org/2001/XMLSchema-instance" xsi:schemaLocation="http://www.topografix.com/GPX/1/1 http://www.topografix.com/GPX/1/1/gpx.xsd" version="1.1" creator="VisuGPX - https://www.visugpx.com">
  <metadata>
    <name>Parcours VTT Aglo 2021</name>
  </metadata>
  <trk>
    <name><![CDATA[Rouge Montclus Orgnac]]></name>
    <extensions>
      <line xmlns="http://www.topografix.com/GPX/gpx_style/0/2">
        <color>fa0000</color>
        <width>4</width>
      </line>
    </extensions>
    <trkseg>
      <trkpt lat="44.26206" lon="4.42011">
        <ele>93</ele>
        <time>2021-07-04T13:10:59Z</time>
      </trkpt>
      <trkpt lat="44.26206" lon="4.42011">
        <ele>93</ele>
        <time>2021-07-04T13:10:59Z</time>
      </trkpt>
      <trkpt lat="44.26307" lon="4.42028">
        <ele>88</ele>
        <time>2021-07-04T13:11:23Z</time>
      </trkpt>
      <trkpt lat="44.26424" lon="4.42075">
        <ele>90</ele>
        <time>2021-07-04T13:11:51Z</time>
      </trkpt>
      <trkpt lat="44.26439" lon="4.42118">
        <ele>90</ele>
        <time>2021-07-04T13:11:59Z</time>
      </trkpt>
      <trkpt lat="44.26455" lon="4.42191">
        <ele>91</ele>
        <time>2021-07-04T13:12:12Z</time>
      </trkpt>
      <trkpt lat="44.26492" lon="4.42275">
        <ele>92</ele>
        <time>2021-07-04T13:12:28Z</time>
      </trkpt>
      <trkpt lat="44.26533" lon="4.4235">
        <ele>92</ele>
        <time>2021-07-04T13:12:44Z</time>
      </trkpt>
      <trkpt lat="44.26546" lon="4.4238">
        <ele>93</ele>
        <time>2021-07-04T13:12:50Z</time>
      </trkpt>
      <trkpt lat="44.26601" lon="4.42582">
        <ele>100</ele>
        <time>2021-07-04T13:13:26Z</time>
      </trkpt>
      <trkpt lat="44.26618" lon="4.42625">
        <ele>102</ele>
        <time>2021-07-04T13:13:34Z</time>
      </trkpt>
      <trkpt lat="44.26668" lon="4.42683">
        <ele>97</ele>
        <time>2021-07-04T13:13:50Z</time>
      </trkpt>
      <trkpt lat="44.26708" lon="4.42773">
        <ele>100</ele>
        <time>2021-07-04T13:14:07Z</time>
      </trkpt>
      <trkpt lat="44.26725" lon="4.42841">
        <ele>105</ele>
        <time>2021-07-04T13:14:19Z</time>
      </trkpt>
      <trkpt lat="44.26738" lon="4.42906">
        <ele>110</ele>
        <time>2021-07-04T13:14:31Z</time>
      </trkpt>
      <trkpt lat="44.26756" lon="4.42934">
        <ele>110</ele>
        <time>2021-07-04T13:14:37Z</time>
      </trkpt>
      <trkpt lat="44.26751" lon="4.42989">
        <ele>116</ele>
        <time>2021-07-04T13:14:46Z</time>
      </trkpt>
      <trkpt lat="44.26805" lon="4.43024">
        <ele>117</ele>
        <time>2021-07-04T13:15:00Z</time>
      </trkpt>
      <trkpt lat="44.26813" lon="4.43037">
        <ele>118</ele>
        <time>2021-07-04T13:15:03Z</time>
      </trkpt>
      <trkpt lat="44.26764" lon="4.43082">
        <ele>125</ele>
        <time>2021-07-04T13:15:17Z</time>
      </trkpt>
      <trkpt lat="44.26738" lon="4.4311">
        <ele>130</ele>
        <time>2021-07-04T13:15:24Z</time>
      </trkpt>
      <trkpt lat="44.26787" lon="4.4323">
        <ele>143</ele>
        <time>2021-07-04T13:15:47Z</time>
      </trkpt>
      <trkpt lat="44.26791" lon="4.43257">
        <ele>146</ele>
        <time>2021-07-04T13:15:52Z</time>
      </trkpt>
      <trkpt lat="44.26751" lon="4.43223">
        <ele>148</ele>
        <time>2021-07-04T13:16:03Z</time>
      </trkpt>
      <trkpt lat="44.26747" lon="4.43245">
        <ele>151</ele>
        <time>2021-07-04T13:16:07Z</time>
      </trkpt>
      <trkpt lat="44.26805" lon="4.43397">
        <ele>159</ele>
        <time>2021-07-04T13:16:36Z</time>
      </trkpt>
      <trkpt lat="44.26794" lon="4.43426">
        <ele>164</ele>
        <time>2021-07-04T13:16:41Z</time>
      </trkpt>
      <trkpt lat="44.26742" lon="4.43493">
        <ele>174</ele>
        <time>2021-07-04T13:16:58Z</time>
      </trkpt>
      <trkpt lat="44.26661" lon="4.43588">
        <ele>180</ele>
        <time>2021-07-04T13:17:22Z</time>
      </trkpt>
      <trkpt lat="44.2669" lon="4.43606">
        <ele>179</ele>
        <time>2021-07-04T13:17:30Z</time>
      </trkpt>
      <trkpt lat="44.26684" lon="4.43642">
        <ele>179</ele>
        <time>2021-07-04T13:17:36Z</time>
      </trkpt>
      <trkpt lat="44.26637" lon="4.43845">
        <ele>187</ele>
        <time>2021-07-04T13:18:12Z</time>
      </trkpt>
      <trkpt lat="44.26594" lon="4.43851">
        <ele>188</ele>
        <time>2021-07-04T13:18:22Z</time>
      </trkpt>
      <trkpt lat="44.26577" lon="4.43893">
        <ele>189</ele>
        <time>2021-07-04T13:18:30Z</time>
      </trkpt>
      <trkpt lat="44.26499" lon="4.43981">
        <ele>185</ele>
        <time>2021-07-04T13:18:53Z</time>
      </trkpt>
      <trkpt lat="44.26565" lon="4.44028">
        <ele>196</ele>
        <time>2021-07-04T13:19:10Z</time>
      </trkpt>
      <trkpt lat="44.2661" lon="4.43969">
        <ele>197</ele>
        <time>2021-07-04T13:19:25Z</time>
      </trkpt>
      <trkpt lat="44.26648" lon="4.43951">
        <ele>199</ele>
        <time>2021-07-04T13:19:34Z</time>
      </trkpt>
      <trkpt lat="44.26702" lon="4.43963">
        <ele>202</ele>
        <time>2021-07-04T13:19:47Z</time>
      </trkpt>
      <trkpt lat="44.26744" lon="4.44012">
        <ele>213</ele>
        <time>2021-07-04T13:20:00Z</time>
      </trkpt>
      <trkpt lat="44.26801" lon="4.44036">
        <ele>213</ele>
        <time>2021-07-04T13:20:14Z</time>
      </trkpt>
      <trkpt lat="44.26837" lon="4.44063">
        <ele>214</ele>
        <time>2021-07-04T13:20:23Z</time>
      </trkpt>
      <trkpt lat="44.26842" lon="4.44097">
        <ele>218</ele>
        <time>2021-07-04T13:20:29Z</time>
      </trkpt>
      <trkpt lat="44.2683" lon="4.44134">
        <ele>222</ele>
        <time>2021-07-04T13:20:36Z</time>
      </trkpt>
      <trkpt lat="44.26768" lon="4.44229">
        <ele>234</ele>
        <time>2021-07-04T13:20:57Z</time>
      </trkpt>
      <trkpt lat="44.26739" lon="4.44314">
        <ele>242</ele>
        <time>2021-07-04T13:21:13Z</time>
      </trkpt>
      <trkpt lat="44.26722" lon="4.44322">
        <ele>242</ele>
        <time>2021-07-04T13:21:17Z</time>
      </trkpt>
      <trkpt lat="44.26719" lon="4.44308">
        <ele>241</ele>
        <time>2021-07-04T13:21:20Z</time>
      </trkpt>
      <trkpt lat="44.26698" lon="4.44316">
        <ele>240</ele>
        <time>2021-07-04T13:21:25Z</time>
      </trkpt>
      <trkpt lat="44.26697" lon="4.44261">
        <ele>236</ele>
        <time>2021-07-04T13:21:34Z</time>
      </trkpt>
      <trkpt lat="44.26533" lon="4.44474">
        <ele>216</ele>
        <time>2021-07-04T13:22:26Z</time>
      </trkpt>
      <trkpt lat="44.26514" lon="4.4448">
        <ele>210</ele>
        <time>2021-07-04T13:22:31Z</time>
      </trkpt>
      <trkpt lat="44.26503" lon="4.44469">
        <ele>205</ele>
        <time>2021-07-04T13:22:34Z</time>
      </trkpt>
      <trkpt lat="44.26485" lon="4.44409">
        <ele>199</ele>
        <time>2021-07-04T13:22:45Z</time>
      </trkpt>
      <trkpt lat="44.2644" lon="4.44392">
        <ele>190</ele>
        <time>2021-07-04T13:22:56Z</time>
      </trkpt>
      <trkpt lat="44.26401" lon="4.44277">
        <ele>180</ele>
        <time>2021-07-04T13:23:17Z</time>
      </trkpt>
      <trkpt lat="44.26391" lon="4.44254">
        <ele>178</ele>
        <time>2021-07-04T13:23:22Z</time>
      </trkpt>
      <trkpt lat="44.26308" lon="4.44205">
        <ele>173</ele>
        <time>2021-07-04T13:23:43Z</time>
      </trkpt>
      <trkpt lat="44.26306" lon="4.44289">
        <ele>171</ele>
        <time>2021-07-04T13:23:57Z</time>
      </trkpt>
      <trkpt lat="44.26293" lon="4.4433">
        <ele>168</ele>
        <time>2021-07-04T13:24:04Z</time>
      </trkpt>
      <trkpt lat="44.26285" lon="4.44398">
        <ele>168</ele>
        <time>2021-07-04T13:24:16Z</time>
      </trkpt>
      <trkpt lat="44.26276" lon="4.44446">
        <ele>168</ele>
        <time>2021-07-04T13:24:24Z</time>
      </trkpt>
      <trkpt lat="44.26297" lon="4.44498">
        <ele>173</ele>
        <time>2021-07-04T13:24:34Z</time>
      </trkpt>
      <trkpt lat="44.26295" lon="4.4454">
        <ele>176</ele>
        <time>2021-07-04T13:24:41Z</time>
      </trkpt>
      <trkpt lat="44.26284" lon="4.44572">
        <ele>176</ele>
        <time>2021-07-04T13:24:47Z</time>
      </trkpt>
      <trkpt lat="44.26265" lon="4.44614">
        <ele>176</ele>
        <time>2021-07-04T13:24:55Z</time>
      </trkpt>
      <trkpt lat="44.26252" lon="4.44626">
        <ele>174</ele>
        <time>2021-07-04T13:24:59Z</time>
      </trkpt>
      <trkpt lat="44.26267" lon="4.44674">
        <ele>178</ele>
        <time>2021-07-04T13:25:08Z</time>
      </trkpt>
      <trkpt lat="44.26297" lon="4.44753">
        <ele>182</ele>
        <time>2021-07-04T13:25:23Z</time>
      </trkpt>
      <trkpt lat="44.26293" lon="4.44785">
        <ele>178</ele>
        <time>2021-07-04T13:25:28Z</time>
      </trkpt>
      <trkpt lat="44.26326" lon="4.4479">
        <ele>184</ele>
        <time>2021-07-04T13:25:36Z</time>
      </trkpt>
      <trkpt lat="44.26398" lon="4.44811">
        <ele>192</ele>
        <time>2021-07-04T13:25:53Z</time>
      </trkpt>
      <trkpt lat="44.2643" lon="4.44816">
        <ele>196</ele>
        <time>2021-07-04T13:26:00Z</time>
      </trkpt>
      <trkpt lat="44.26462" lon="4.4484">
        <ele>196</ele>
        <time>2021-07-04T13:26:09Z</time>
      </trkpt>
      <trkpt lat="44.26497" lon="4.44849">
        <ele>199</ele>
        <time>2021-07-04T13:26:17Z</time>
      </trkpt>
      <trkpt lat="44.26583" lon="4.44965">
        <ele>204</ele>
        <time>2021-07-04T13:26:45Z</time>
      </trkpt>
      <trkpt lat="44.26595" lon="4.44994">
        <ele>205</ele>
        <time>2021-07-04T13:26:51Z</time>
      </trkpt>
      <trkpt lat="44.26574" lon="4.45122">
        <ele>215</ele>
        <time>2021-07-04T13:27:13Z</time>
      </trkpt>
      <trkpt lat="44.2657" lon="4.45187">
        <ele>223</ele>
        <time>2021-07-04T13:27:24Z</time>
      </trkpt>
      <trkpt lat="44.26572" lon="4.4528">
        <ele>232</ele>
        <time>2021-07-04T13:27:39Z</time>
      </trkpt>
      <trkpt lat="44.26583" lon="4.45362">
        <ele>241</ele>
        <time>2021-07-04T13:27:53Z</time>
      </trkpt>
      <trkpt lat="44.26603" lon="4.45447">
        <ele>253</ele>
        <time>2021-07-04T13:28:08Z</time>
      </trkpt>
      <trkpt lat="44.26624" lon="4.45515">
        <ele>261</ele>
        <time>2021-07-04T13:28:21Z</time>
      </trkpt>
      <trkpt lat="44.26646" lon="4.45612">
        <ele>271</ele>
        <time>2021-07-04T13:28:38Z</time>
      </trkpt>
      <trkpt lat="44.26642" lon="4.4564">
        <ele>273</ele>
        <time>2021-07-04T13:28:42Z</time>
      </trkpt>
      <trkpt lat="44.26624" lon="4.45693">
        <ele>273</ele>
        <time>2021-07-04T13:28:52Z</time>
      </trkpt>
      <trkpt lat="44.26693" lon="4.4579">
        <ele>273</ele>
        <time>2021-07-04T13:29:15Z</time>
      </trkpt>
      <trkpt lat="44.26728" lon="4.4585">
        <ele>271</ele>
        <time>2021-07-04T13:29:28Z</time>
      </trkpt>
      <trkpt lat="44.26782" lon="4.45976">
        <ele>264</ele>
        <time>2021-07-04T13:29:53Z</time>
      </trkpt>
      <trkpt lat="44.26813" lon="4.46079">
        <ele>259</ele>
        <time>2021-07-04T13:30:11Z</time>
      </trkpt>
      <trkpt lat="44.26804" lon="4.46124">
        <ele>254</ele>
        <time>2021-07-04T13:30:19Z</time>
      </trkpt>
      <trkpt lat="44.26833" lon="4.46227">
        <ele>254</ele>
        <time>2021-07-04T13:30:38Z</time>
      </trkpt>
      <trkpt lat="44.26854" lon="4.46341">
        <ele>254</ele>
        <time>2021-07-04T13:30:57Z</time>
      </trkpt>
      <trkpt lat="44.26857" lon="4.46423">
        <ele>258</ele>
        <time>2021-07-04T13:31:11Z</time>
      </trkpt>
      <trkpt lat="44.26861" lon="4.46442">
        <ele>258</ele>
        <time>2021-07-04T13:31:14Z</time>
      </trkpt>
      <trkpt lat="44.2687" lon="4.46433">
        <ele>259</ele>
        <time>2021-07-04T13:31:17Z</time>
      </trkpt>
      <trkpt lat="44.26896" lon="4.4644">
        <ele>261</ele>
        <time>2021-07-04T13:31:23Z</time>
      </trkpt>
      <trkpt lat="44.26917" lon="4.46459">
        <ele>263</ele>
        <time>2021-07-04T13:31:29Z</time>
      </trkpt>
      <trkpt lat="44.26941" lon="4.46452">
        <ele>262</ele>
        <time>2021-07-04T13:31:35Z</time>
      </trkpt>
      <trkpt lat="44.26977" lon="4.46478">
        <ele>262</ele>
        <time>2021-07-04T13:31:44Z</time>
      </trkpt>
      <trkpt lat="44.27043" lon="4.46508">
        <ele>260</ele>
        <time>2021-07-04T13:32:00Z</time>
      </trkpt>
      <trkpt lat="44.2711" lon="4.46514">
        <ele>257</ele>
        <time>2021-07-04T13:32:16Z</time>
      </trkpt>
      <trkpt lat="44.2711" lon="4.46546">
        <ele>255</ele>
        <time>2021-07-04T13:32:21Z</time>
      </trkpt>
      <trkpt lat="44.27118" lon="4.46559">
        <ele>253</ele>
        <time>2021-07-04T13:32:24Z</time>
      </trkpt>
      <trkpt lat="44.27137" lon="4.46576">
        <ele>251</ele>
        <time>2021-07-04T13:32:29Z</time>
      </trkpt>
      <trkpt lat="44.27143" lon="4.46592">
        <ele>249</ele>
        <time>2021-07-04T13:32:32Z</time>
      </trkpt>
      <trkpt lat="44.27159" lon="4.46667">
        <ele>242</ele>
        <time>2021-07-04T13:32:46Z</time>
      </trkpt>
      <trkpt lat="44.27177" lon="4.46684">
        <ele>239</ele>
        <time>2021-07-04T13:32:51Z</time>
      </trkpt>
      <trkpt lat="44.27203" lon="4.46725">
        <ele>234</ele>
        <time>2021-07-04T13:33:00Z</time>
      </trkpt>
      <trkpt lat="44.27202" lon="4.46741">
        <ele>233</ele>
        <time>2021-07-04T13:33:02Z</time>
      </trkpt>
      <trkpt lat="44.27188" lon="4.4677">
        <ele>233</ele>
        <time>2021-07-04T13:33:08Z</time>
      </trkpt>
      <trkpt lat="44.2717" lon="4.46866">
        <ele>233</ele>
        <time>2021-07-04T13:33:25Z</time>
      </trkpt>
      <trkpt lat="44.27152" lon="4.46908">
        <ele>236</ele>
        <time>2021-07-04T13:33:33Z</time>
      </trkpt>
      <trkpt lat="44.27127" lon="4.46947">
        <ele>240</ele>
        <time>2021-07-04T13:33:42Z</time>
      </trkpt>
      <trkpt lat="44.27126" lon="4.46968">
        <ele>240</ele>
        <time>2021-07-04T13:33:45Z</time>
      </trkpt>
      <trkpt lat="44.27152" lon="4.46993">
        <ele>238</ele>
        <time>2021-07-04T13:33:53Z</time>
      </trkpt>
      <trkpt lat="44.27177" lon="4.47027">
        <ele>238</ele>
        <time>2021-07-04T13:34:01Z</time>
      </trkpt>
      <trkpt lat="44.27209" lon="4.47051">
        <ele>237</ele>
        <time>2021-07-04T13:34:09Z</time>
      </trkpt>
      <trkpt lat="44.27239" lon="4.47085">
        <ele>236</ele>
        <time>2021-07-04T13:34:18Z</time>
      </trkpt>
      <trkpt lat="44.27289" lon="4.47127">
        <ele>239</ele>
        <time>2021-07-04T13:34:32Z</time>
      </trkpt>
      <trkpt lat="44.27285" lon="4.47138">
        <ele>240</ele>
        <time>2021-07-04T13:34:34Z</time>
      </trkpt>
      <trkpt lat="44.27265" lon="4.47151">
        <ele>241</ele>
        <time>2021-07-04T13:34:39Z</time>
      </trkpt>
      <trkpt lat="44.27258" lon="4.47163">
        <ele>243</ele>
        <time>2021-07-04T13:34:42Z</time>
      </trkpt>
      <trkpt lat="44.27238" lon="4.47206">
        <ele>248</ele>
        <time>2021-07-04T13:34:50Z</time>
      </trkpt>
      <trkpt lat="44.27233" lon="4.47238">
        <ele>252</ele>
        <time>2021-07-04T13:34:56Z</time>
      </trkpt>
      <trkpt lat="44.27238" lon="4.4727">
        <ele>253</ele>
        <time>2021-07-04T13:35:01Z</time>
      </trkpt>
      <trkpt lat="44.27224" lon="4.47323">
        <ele>256</ele>
        <time>2021-07-04T13:35:11Z</time>
      </trkpt>
      <trkpt lat="44.27215" lon="4.47423">
        <ele>262</ele>
        <time>2021-07-04T13:35:28Z</time>
      </trkpt>
      <trkpt lat="44.27212" lon="4.47559">
        <ele>270</ele>
        <time>2021-07-04T13:35:50Z</time>
      </trkpt>
      <trkpt lat="44.27216" lon="4.47641">
        <ele>275</ele>
        <time>2021-07-04T13:36:04Z</time>
      </trkpt>
      <trkpt lat="44.27203" lon="4.47672">
        <ele>277</ele>
        <time>2021-07-04T13:36:10Z</time>
      </trkpt>
      <trkpt lat="44.27185" lon="4.47693">
        <ele>277</ele>
        <time>2021-07-04T13:36:16Z</time>
      </trkpt>
      <trkpt lat="44.27155" lon="4.47764">
        <ele>278</ele>
        <time>2021-07-04T13:36:29Z</time>
      </trkpt>
      <trkpt lat="44.27111" lon="4.47821">
        <ele>278</ele>
        <time>2021-07-04T13:36:43Z</time>
      </trkpt>
      <trkpt lat="44.2708" lon="4.47874">
        <ele>280</ele>
        <time>2021-07-04T13:36:55Z</time>
      </trkpt>
      <trkpt lat="44.27075" lon="4.47892">
        <ele>281</ele>
        <time>2021-07-04T13:36:58Z</time>
      </trkpt>
      <trkpt lat="44.27069" lon="4.47959">
        <ele>283</ele>
        <time>2021-07-04T13:37:09Z</time>
      </trkpt>
      <trkpt lat="44.27087" lon="4.47989">
        <ele>285</ele>
        <time>2021-07-04T13:37:16Z</time>
      </trkpt>
      <trkpt lat="44.27097" lon="4.48024">
        <ele>285</ele>
        <time>2021-07-04T13:37:22Z</time>
      </trkpt>
      <trkpt lat="44.27105" lon="4.48042">
        <ele>286</ele>
        <time>2021-07-04T13:37:26Z</time>
      </trkpt>
      <trkpt lat="44.27116" lon="4.48048">
        <ele>287</ele>
        <time>2021-07-04T13:37:29Z</time>
      </trkpt>
      <trkpt lat="44.27138" lon="4.48021">
        <ele>287</ele>
        <time>2021-07-04T13:37:35Z</time>
      </trkpt>
      <trkpt lat="44.27158" lon="4.4801">
        <ele>287</ele>
        <time>2021-07-04T13:37:40Z</time>
      </trkpt>
      <trkpt lat="44.27184" lon="4.48014">
        <ele>286</ele>
        <time>2021-07-04T13:37:46Z</time>
      </trkpt>
      <trkpt lat="44.27209" lon="4.48035">
        <ele>286</ele>
        <time>2021-07-04T13:37:53Z</time>
      </trkpt>
      <trkpt lat="44.27239" lon="4.48053">
        <ele>284</ele>
        <time>2021-07-04T13:38:01Z</time>
      </trkpt>
      <trkpt lat="44.27263" lon="4.4808">
        <ele>282</ele>
        <time>2021-07-04T13:38:08Z</time>
      </trkpt>
      <trkpt lat="44.27348" lon="4.48093">
        <ele>278</ele>
        <time>2021-07-04T13:38:28Z</time>
      </trkpt>
      <trkpt lat="44.27371" lon="4.48108">
        <ele>278</ele>
        <time>2021-07-04T13:38:34Z</time>
      </trkpt>
      <trkpt lat="44.27407" lon="4.48103">
        <ele>278</ele>
        <time>2021-07-04T13:38:42Z</time>
      </trkpt>
      <trkpt lat="44.27435" lon="4.48102">
        <ele>277</ele>
        <time>2021-07-04T13:38:49Z</time>
      </trkpt>
      <trkpt lat="44.27456" lon="4.48071">
        <ele>275</ele>
        <time>2021-07-04T13:38:56Z</time>
      </trkpt>
      <trkpt lat="44.27484" lon="4.48045">
        <ele>274</ele>
        <time>2021-07-04T13:39:04Z</time>
      </trkpt>
      <trkpt lat="44.27523" lon="4.48014">
        <ele>271</ele>
        <time>2021-07-04T13:39:14Z</time>
      </trkpt>
      <trkpt lat="44.27594" lon="4.47949">
        <ele>269</ele>
        <time>2021-07-04T13:39:34Z</time>
      </trkpt>
      <trkpt lat="44.27646" lon="4.47912">
        <ele>269</ele>
        <time>2021-07-04T13:39:48Z</time>
      </trkpt>
      <trkpt lat="44.27694" lon="4.47884">
        <ele>269</ele>
        <time>2021-07-04T13:40:00Z</time>
      </trkpt>
      <trkpt lat="44.27775" lon="4.47823">
        <ele>266</ele>
        <time>2021-07-04T13:40:22Z</time>
      </trkpt>
      <trkpt lat="44.27807" lon="4.47792">
        <ele>265</ele>
        <time>2021-07-04T13:40:31Z</time>
      </trkpt>
      <trkpt lat="44.27835" lon="4.47773">
        <ele>264</ele>
        <time>2021-07-04T13:40:38Z</time>
      </trkpt>
      <trkpt lat="44.27848" lon="4.47753">
        <ele>263</ele>
        <time>2021-07-04T13:40:42Z</time>
      </trkpt>
      <trkpt lat="44.27861" lon="4.47754">
        <ele>262</ele>
        <time>2021-07-04T13:40:45Z</time>
      </trkpt>
      <trkpt lat="44.2788" lon="4.47738">
        <ele>261</ele>
        <time>2021-07-04T13:40:51Z</time>
      </trkpt>
      <trkpt lat="44.27914" lon="4.47726">
        <ele>259</ele>
        <time>2021-07-04T13:40:59Z</time>
      </trkpt>
      <trkpt lat="44.27993" lon="4.47686">
        <ele>260</ele>
        <time>2021-07-04T13:41:18Z</time>
      </trkpt>
      <trkpt lat="44.2802" lon="4.4767">
        <ele>263</ele>
        <time>2021-07-04T13:41:25Z</time>
      </trkpt>
      <trkpt lat="44.2803" lon="4.47657">
        <ele>264</ele>
        <time>2021-07-04T13:41:29Z</time>
      </trkpt>
      <trkpt lat="44.28041" lon="4.47657">
        <ele>266</ele>
        <time>2021-07-04T13:41:31Z</time>
      </trkpt>
      <trkpt lat="44.2804" lon="4.47639">
        <ele>266</ele>
        <time>2021-07-04T13:41:34Z</time>
      </trkpt>
      <trkpt lat="44.28053" lon="4.47612">
        <ele>268</ele>
        <time>2021-07-04T13:41:40Z</time>
      </trkpt>
      <trkpt lat="44.28075" lon="4.47577">
        <ele>270</ele>
        <time>2021-07-04T13:41:47Z</time>
      </trkpt>
      <trkpt lat="44.28109" lon="4.47533">
        <ele>271</ele>
        <time>2021-07-04T13:41:58Z</time>
      </trkpt>
      <trkpt lat="44.28122" lon="4.47508">
        <ele>270</ele>
        <time>2021-07-04T13:42:03Z</time>
      </trkpt>
      <trkpt lat="44.28153" lon="4.475">
        <ele>271</ele>
        <time>2021-07-04T13:42:11Z</time>
      </trkpt>
      <trkpt lat="44.28171" lon="4.47475">
        <ele>271</ele>
        <time>2021-07-04T13:42:17Z</time>
      </trkpt>
      <trkpt lat="44.28214" lon="4.47474">
        <ele>273</ele>
        <time>2021-07-04T13:42:27Z</time>
      </trkpt>
      <trkpt lat="44.28247" lon="4.47453">
        <ele>275</ele>
        <time>2021-07-04T13:42:35Z</time>
      </trkpt>
      <trkpt lat="44.28291" lon="4.4743">
        <ele>272</ele>
        <time>2021-07-04T13:42:46Z</time>
      </trkpt>
      <trkpt lat="44.28306" lon="4.47407">
        <ele>272</ele>
        <time>2021-07-04T13:42:51Z</time>
      </trkpt>
      <trkpt lat="44.28332" lon="4.47389">
        <ele>271</ele>
        <time>2021-07-04T13:42:58Z</time>
      </trkpt>
      <trkpt lat="44.28362" lon="4.47352">
        <ele>270</ele>
        <time>2021-07-04T13:43:07Z</time>
      </trkpt>
      <trkpt lat="44.28377" lon="4.4732">
        <ele>269</ele>
        <time>2021-07-04T13:43:14Z</time>
      </trkpt>
      <trkpt lat="44.28393" lon="4.47306">
        <ele>268</ele>
        <time>2021-07-04T13:43:18Z</time>
      </trkpt>
      <trkpt lat="44.28405" lon="4.47244">
        <ele>267</ele>
        <time>2021-07-04T13:43:29Z</time>
      </trkpt>
      <trkpt lat="44.28423" lon="4.47232">
        <ele>265</ele>
        <time>2021-07-04T13:43:34Z</time>
      </trkpt>
      <trkpt lat="44.2845" lon="4.4722">
        <ele>262</ele>
        <time>2021-07-04T13:43:40Z</time>
      </trkpt>
      <trkpt lat="44.28471" lon="4.47166">
        <ele>259</ele>
        <time>2021-07-04T13:43:51Z</time>
      </trkpt>
      <trkpt lat="44.28506" lon="4.47097">
        <ele>254</ele>
        <time>2021-07-04T13:44:05Z</time>
      </trkpt>
      <trkpt lat="44.28508" lon="4.47076">
        <ele>252</ele>
        <time>2021-07-04T13:44:08Z</time>
      </trkpt>
      <trkpt lat="44.28522" lon="4.47055">
        <ele>248</ele>
        <time>2021-07-04T13:44:13Z</time>
      </trkpt>
      <trkpt lat="44.28541" lon="4.47044">
        <ele>246</ele>
        <time>2021-07-04T13:44:18Z</time>
      </trkpt>
      <trkpt lat="44.28545" lon="4.47032">
        <ele>244</ele>
        <time>2021-07-04T13:44:20Z</time>
      </trkpt>
      <trkpt lat="44.28577" lon="4.47012">
        <ele>241</ele>
        <time>2021-07-04T13:44:28Z</time>
      </trkpt>
      <trkpt lat="44.28593" lon="4.47012">
        <ele>241</ele>
        <time>2021-07-04T13:44:32Z</time>
      </trkpt>
      <trkpt lat="44.28607" lon="4.46955">
        <ele>238</ele>
        <time>2021-07-04T13:44:42Z</time>
      </trkpt>
      <trkpt lat="44.28624" lon="4.4693">
        <ele>238</ele>
        <time>2021-07-04T13:44:48Z</time>
      </trkpt>
      <trkpt lat="44.28647" lon="4.46868">
        <ele>240</ele>
        <time>2021-07-04T13:44:59Z</time>
      </trkpt>
      <trkpt lat="44.28687" lon="4.46793">
        <ele>246</ele>
        <time>2021-07-04T13:45:15Z</time>
      </trkpt>
      <trkpt lat="44.28718" lon="4.46755">
        <ele>249</ele>
        <time>2021-07-04T13:45:25Z</time>
      </trkpt>
      <trkpt lat="44.28733" lon="4.46742">
        <ele>250</ele>
        <time>2021-07-04T13:45:29Z</time>
      </trkpt>
      <trkpt lat="44.28742" lon="4.46703">
        <ele>250</ele>
        <time>2021-07-04T13:45:36Z</time>
      </trkpt>
      <trkpt lat="44.28827" lon="4.46643">
        <ele>257</ele>
        <time>2021-07-04T13:45:58Z</time>
      </trkpt>
      <trkpt lat="44.28878" lon="4.46602">
        <ele>260</ele>
        <time>2021-07-04T13:46:12Z</time>
      </trkpt>
      <trkpt lat="44.28873" lon="4.46579">
        <ele>261</ele>
        <time>2021-07-04T13:46:16Z</time>
      </trkpt>
      <trkpt lat="44.28874" lon="4.4654">
        <ele>263</ele>
        <time>2021-07-04T13:46:22Z</time>
      </trkpt>
      <trkpt lat="44.2887" lon="4.4652">
        <ele>264</ele>
        <time>2021-07-04T13:46:26Z</time>
      </trkpt>
      <trkpt lat="44.28864" lon="4.46508">
        <ele>264</ele>
        <time>2021-07-04T13:46:28Z</time>
      </trkpt>
      <trkpt lat="44.28875" lon="4.4649">
        <ele>265</ele>
        <time>2021-07-04T13:46:32Z</time>
      </trkpt>
      <trkpt lat="44.28898" lon="4.46479">
        <ele>267</ele>
        <time>2021-07-04T13:46:38Z</time>
      </trkpt>
      <trkpt lat="44.28954" lon="4.46405">
        <ele>272</ele>
        <time>2021-07-04T13:46:56Z</time>
      </trkpt>
      <trkpt lat="44.28981" lon="4.46378">
        <ele>275</ele>
        <time>2021-07-04T13:47:04Z</time>
      </trkpt>
      <trkpt lat="44.28991" lon="4.46357">
        <ele>277</ele>
        <time>2021-07-04T13:47:08Z</time>
      </trkpt>
      <trkpt lat="44.2901" lon="4.46328">
        <ele>279</ele>
        <time>2021-07-04T13:47:14Z</time>
      </trkpt>
      <trkpt lat="44.29013" lon="4.46309">
        <ele>280</ele>
        <time>2021-07-04T13:47:18Z</time>
      </trkpt>
      <trkpt lat="44.29013" lon="4.46278">
        <ele>282</ele>
        <time>2021-07-04T13:47:23Z</time>
      </trkpt>
      <trkpt lat="44.2902" lon="4.46244">
        <ele>283</ele>
        <time>2021-07-04T13:47:29Z</time>
      </trkpt>
      <trkpt lat="44.29028" lon="4.46224">
        <ele>282</ele>
        <time>2021-07-04T13:47:32Z</time>
      </trkpt>
      <trkpt lat="44.29029" lon="4.46196">
        <ele>281</ele>
        <time>2021-07-04T13:47:37Z</time>
      </trkpt>
      <trkpt lat="44.29118" lon="4.46119">
        <ele>281</ele>
        <time>2021-07-04T13:48:02Z</time>
      </trkpt>
      <trkpt lat="44.2918" lon="4.46087">
        <ele>283</ele>
        <time>2021-07-04T13:48:17Z</time>
      </trkpt>
      <trkpt lat="44.29209" lon="4.46051">
        <ele>283</ele>
        <time>2021-07-04T13:48:26Z</time>
      </trkpt>
      <trkpt lat="44.29225" lon="4.46026">
        <ele>283</ele>
        <time>2021-07-04T13:48:32Z</time>
      </trkpt>
      <trkpt lat="44.29259" lon="4.46013">
        <ele>284</ele>
        <time>2021-07-04T13:48:40Z</time>
      </trkpt>
      <trkpt lat="44.29278" lon="4.46001">
        <ele>285</ele>
        <time>2021-07-04T13:48:45Z</time>
      </trkpt>
      <trkpt lat="44.29292" lon="4.45996">
        <ele>285</ele>
        <time>2021-07-04T13:48:48Z</time>
      </trkpt>
      <trkpt lat="44.29316" lon="4.45994">
        <ele>285</ele>
        <time>2021-07-04T13:48:54Z</time>
      </trkpt>
      <trkpt lat="44.29361" lon="4.4596">
        <ele>285</ele>
        <time>2021-07-04T13:49:06Z</time>
      </trkpt>
      <trkpt lat="44.29398" lon="4.45879">
        <ele>285</ele>
        <time>2021-07-04T13:49:22Z</time>
      </trkpt>
      <trkpt lat="44.29416" lon="4.45855">
        <ele>285</ele>
        <time>2021-07-04T13:49:28Z</time>
      </trkpt>
      <trkpt lat="44.29438" lon="4.45837">
        <ele>284</ele>
        <time>2021-07-04T13:49:34Z</time>
      </trkpt>
      <trkpt lat="44.29464" lon="4.45827">
        <ele>283</ele>
        <time>2021-07-04T13:49:40Z</time>
      </trkpt>
      <trkpt lat="44.2949" lon="4.45839">
        <ele>283</ele>
        <time>2021-07-04T13:49:46Z</time>
      </trkpt>
      <trkpt lat="44.29556" lon="4.4583">
        <ele>281</ele>
        <time>2021-07-04T13:50:02Z</time>
      </trkpt>
      <trkpt lat="44.29575" lon="4.4583">
        <ele>281</ele>
        <time>2021-07-04T13:50:06Z</time>
      </trkpt>
      <trkpt lat="44.29682" lon="4.45863">
        <ele>280</ele>
        <time>2021-07-04T13:50:32Z</time>
      </trkpt>
      <trkpt lat="44.29702" lon="4.45903">
        <ele>279</ele>
        <time>2021-07-04T13:50:40Z</time>
      </trkpt>
      <trkpt lat="44.29762" lon="4.46085">
        <ele>277</ele>
        <time>2021-07-04T13:51:13Z</time>
      </trkpt>
      <trkpt lat="44.29778" lon="4.46151">
        <ele>278</ele>
        <time>2021-07-04T13:51:25Z</time>
      </trkpt>
      <trkpt lat="44.2978" lon="4.46176">
        <ele>278</ele>
        <time>2021-07-04T13:51:29Z</time>
      </trkpt>
      <trkpt lat="44.29787" lon="4.46178">
        <ele>278</ele>
        <time>2021-07-04T13:51:31Z</time>
      </trkpt>
      <trkpt lat="44.29787" lon="4.46194">
        <ele>277</ele>
        <time>2021-07-04T13:51:34Z</time>
      </trkpt>
      <trkpt lat="44.29757" lon="4.46523">
        <ele>270</ele>
        <time>2021-07-04T13:52:29Z</time>
      </trkpt>
      <trkpt lat="44.29747" lon="4.46705">
        <ele>270</ele>
        <time>2021-07-04T13:53:00Z</time>
      </trkpt>
      <trkpt lat="44.29768" lon="4.46726">
        <ele>270</ele>
        <time>2021-07-04T13:53:06Z</time>
      </trkpt>
      <trkpt lat="44.29778" lon="4.46744">
        <ele>270</ele>
        <time>2021-07-04T13:53:09Z</time>
      </trkpt>
      <trkpt lat="44.29798" lon="4.46752">
        <ele>270</ele>
        <time>2021-07-04T13:53:14Z</time>
      </trkpt>
      <trkpt lat="44.29844" lon="4.46796">
        <ele>269</ele>
        <time>2021-07-04T13:53:27Z</time>
      </trkpt>
      <trkpt lat="44.29921" lon="4.46832">
        <ele>272</ele>
        <time>2021-07-04T13:53:46Z</time>
      </trkpt>
      <trkpt lat="44.29923" lon="4.46902">
        <ele>270</ele>
        <time>2021-07-04T13:53:58Z</time>
      </trkpt>
      <trkpt lat="44.29929" lon="4.46934">
        <ele>269</ele>
        <time>2021-07-04T13:54:03Z</time>
      </trkpt>
      <trkpt lat="44.29947" lon="4.46992">
        <ele>266</ele>
        <time>2021-07-04T13:54:14Z</time>
      </trkpt>
      <trkpt lat="44.29964" lon="4.4706">
        <ele>263</ele>
        <time>2021-07-04T13:54:26Z</time>
      </trkpt>
      <trkpt lat="44.29979" lon="4.471">
        <ele>261</ele>
        <time>2021-07-04T13:54:34Z</time>
      </trkpt>
      <trkpt lat="44.29981" lon="4.47124">
        <ele>261</ele>
        <time>2021-07-04T13:54:38Z</time>
      </trkpt>
      <trkpt lat="44.2998" lon="4.47153">
        <ele>260</ele>
        <time>2021-07-04T13:54:43Z</time>
      </trkpt>
      <trkpt lat="44.29989" lon="4.47228">
        <ele>258</ele>
        <time>2021-07-04T13:54:55Z</time>
      </trkpt>
      <trkpt lat="44.29984" lon="4.47276">
        <ele>257</ele>
        <time>2021-07-04T13:55:03Z</time>
      </trkpt>
      <trkpt lat="44.29972" lon="4.47317">
        <ele>257</ele>
        <time>2021-07-04T13:55:11Z</time>
      </trkpt>
      <trkpt lat="44.29968" lon="4.47377">
        <ele>257</ele>
        <time>2021-07-04T13:55:21Z</time>
      </trkpt>
      <trkpt lat="44.29952" lon="4.47415">
        <ele>259</ele>
        <time>2021-07-04T13:55:28Z</time>
      </trkpt>
      <trkpt lat="44.29947" lon="4.47449">
        <ele>259</ele>
        <time>2021-07-04T13:55:34Z</time>
      </trkpt>
      <trkpt lat="44.29949" lon="4.47482">
        <ele>259</ele>
        <time>2021-07-04T13:55:40Z</time>
      </trkpt>
      <trkpt lat="44.29963" lon="4.47509">
        <ele>259</ele>
        <time>2021-07-04T13:55:45Z</time>
      </trkpt>
      <trkpt lat="44.29999" lon="4.47505">
        <ele>259</ele>
        <time>2021-07-04T13:55:54Z</time>
      </trkpt>
      <trkpt lat="44.30032" lon="4.47489">
        <ele>258</ele>
        <time>2021-07-04T13:56:02Z</time>
      </trkpt>
      <trkpt lat="44.30049" lon="4.47451">
        <ele>256</ele>
        <time>2021-07-04T13:56:09Z</time>
      </trkpt>
      <trkpt lat="44.30081" lon="4.47421">
        <ele>255</ele>
        <time>2021-07-04T13:56:18Z</time>
      </trkpt>
      <trkpt lat="44.30109" lon="4.47411">
        <ele>253</ele>
        <time>2021-07-04T13:56:25Z</time>
      </trkpt>
      <trkpt lat="44.30164" lon="4.47414">
        <ele>248</ele>
        <time>2021-07-04T13:56:38Z</time>
      </trkpt>
      <trkpt lat="44.30215" lon="4.47361">
        <ele>251</ele>
        <time>2021-07-04T13:56:53Z</time>
      </trkpt>
      <trkpt lat="44.30249" lon="4.47336">
        <ele>252</ele>
        <time>2021-07-04T13:57:02Z</time>
      </trkpt>
      <trkpt lat="44.303" lon="4.47308">
        <ele>251</ele>
        <time>2021-07-04T13:57:14Z</time>
      </trkpt>
      <trkpt lat="44.30327" lon="4.47296">
        <ele>251</ele>
        <time>2021-07-04T13:57:21Z</time>
      </trkpt>
      <trkpt lat="44.30344" lon="4.47268">
        <ele>252</ele>
        <time>2021-07-04T13:57:27Z</time>
      </trkpt>
      <trkpt lat="44.30407" lon="4.47283">
        <ele>254</ele>
        <time>2021-07-04T13:57:42Z</time>
      </trkpt>
      <trkpt lat="44.30437" lon="4.47277">
        <ele>255</ele>
        <time>2021-07-04T13:57:49Z</time>
      </trkpt>
      <trkpt lat="44.30468" lon="4.47267">
        <ele>256</ele>
        <time>2021-07-04T13:57:57Z</time>
      </trkpt>
      <trkpt lat="44.30499" lon="4.47268">
        <ele>257</ele>
        <time>2021-07-04T13:58:04Z</time>
      </trkpt>
      <trkpt lat="44.30559" lon="4.47303">
        <ele>259</ele>
        <time>2021-07-04T13:58:19Z</time>
      </trkpt>
      <trkpt lat="44.30578" lon="4.47294">
        <ele>260</ele>
        <time>2021-07-04T13:58:24Z</time>
      </trkpt>
      <trkpt lat="44.30592" lon="4.4727">
        <ele>262</ele>
        <time>2021-07-04T13:58:29Z</time>
      </trkpt>
      <trkpt lat="44.30628" lon="4.47223">
        <ele>266</ele>
        <time>2021-07-04T13:58:40Z</time>
      </trkpt>
      <trkpt lat="44.30677" lon="4.47228">
        <ele>268</ele>
        <time>2021-07-04T13:58:52Z</time>
      </trkpt>
      <trkpt lat="44.30687" lon="4.47213">
        <ele>269</ele>
        <time>2021-07-04T13:58:55Z</time>
      </trkpt>
      <trkpt lat="44.3074" lon="4.47212">
        <ele>270</ele>
        <time>2021-07-04T13:59:08Z</time>
      </trkpt>
      <trkpt lat="44.30762" lon="4.47204">
        <ele>270</ele>
        <time>2021-07-04T13:59:13Z</time>
      </trkpt>
      <trkpt lat="44.30797" lon="4.47165">
        <ele>272</ele>
        <time>2021-07-04T13:59:23Z</time>
      </trkpt>
      <trkpt lat="44.30807" lon="4.47148">
        <ele>273</ele>
        <time>2021-07-04T13:59:27Z</time>
      </trkpt>
      <trkpt lat="44.30832" lon="4.47062">
        <ele>276</ele>
        <time>2021-07-04T13:59:43Z</time>
      </trkpt>
      <trkpt lat="44.30864" lon="4.46997">
        <ele>280</ele>
        <time>2021-07-04T13:59:56Z</time>
      </trkpt>
      <trkpt lat="44.30895" lon="4.46917">
        <ele>283</ele>
        <time>2021-07-04T14:00:11Z</time>
      </trkpt>
      <trkpt lat="44.30899" lon="4.4689">
        <ele>284</ele>
        <time>2021-07-04T14:00:16Z</time>
      </trkpt>
      <trkpt lat="44.30896" lon="4.46876">
        <ele>285</ele>
        <time>2021-07-04T14:00:18Z</time>
      </trkpt>
      <trkpt lat="44.30881" lon="4.46861">
        <ele>285</ele>
        <time>2021-07-04T14:00:22Z</time>
      </trkpt>
      <trkpt lat="44.30877" lon="4.46756">
        <ele>287</ele>
        <time>2021-07-04T14:00:40Z</time>
      </trkpt>
      <trkpt lat="44.30879" lon="4.4672">
        <ele>289</ele>
        <time>2021-07-04T14:00:46Z</time>
      </trkpt>
      <trkpt lat="44.30883" lon="4.46698">
        <ele>290</ele>
        <time>2021-07-04T14:00:50Z</time>
      </trkpt>
      <trkpt lat="44.30893" lon="4.46671">
        <ele>292</ele>
        <time>2021-07-04T14:00:55Z</time>
      </trkpt>
      <trkpt lat="44.30929" lon="4.46609">
        <ele>297</ele>
        <time>2021-07-04T14:01:08Z</time>
      </trkpt>
      <trkpt lat="44.30934" lon="4.46541">
        <ele>297</ele>
        <time>2021-07-04T14:01:20Z</time>
      </trkpt>
      <trkpt lat="44.30949" lon="4.46494">
        <ele>297</ele>
        <time>2021-07-04T14:01:28Z</time>
      </trkpt>
      <trkpt lat="44.30945" lon="4.4646">
        <ele>298</ele>
        <time>2021-07-04T14:01:34Z</time>
      </trkpt>
      <trkpt lat="44.30958" lon="4.46381">
        <ele>300</ele>
        <time>2021-07-04T14:01:47Z</time>
      </trkpt>
      <trkpt lat="44.30967" lon="4.46361">
        <ele>301</ele>
        <time>2021-07-04T14:01:51Z</time>
      </trkpt>
      <trkpt lat="44.30969" lon="4.46327">
        <ele>302</ele>
        <time>2021-07-04T14:01:57Z</time>
      </trkpt>
      <trkpt lat="44.30965" lon="4.46305">
        <ele>302</ele>
        <time>2021-07-04T14:02:01Z</time>
      </trkpt>
      <trkpt lat="44.30952" lon="4.4628">
        <ele>302</ele>
        <time>2021-07-04T14:02:06Z</time>
      </trkpt>
      <trkpt lat="44.30955" lon="4.46214">
        <ele>305</ele>
        <time>2021-07-04T14:02:17Z</time>
      </trkpt>
      <trkpt lat="44.30924" lon="4.46204">
        <ele>303</ele>
        <time>2021-07-04T14:02:25Z</time>
      </trkpt>
      <trkpt lat="44.30912" lon="4.46211">
        <ele>302</ele>
        <time>2021-07-04T14:02:28Z</time>
      </trkpt>
      <trkpt lat="44.3089" lon="4.46231">
        <ele>300</ele>
        <time>2021-07-04T14:02:34Z</time>
      </trkpt>
      <trkpt lat="44.3088" lon="4.46229">
        <ele>300</ele>
        <time>2021-07-04T14:02:36Z</time>
      </trkpt>
      <trkpt lat="44.30863" lon="4.4621">
        <ele>300</ele>
        <time>2021-07-04T14:02:41Z</time>
      </trkpt>
      <trkpt lat="44.30834" lon="4.46155">
        <ele>300</ele>
        <time>2021-07-04T14:02:53Z</time>
      </trkpt>
      <trkpt lat="44.30843" lon="4.46052">
        <ele>304</ele>
        <time>2021-07-04T14:03:10Z</time>
      </trkpt>
      <trkpt lat="44.30834" lon="4.46011">
        <ele>305</ele>
        <time>2021-07-04T14:03:17Z</time>
      </trkpt>
      <trkpt lat="44.30845" lon="4.45852">
        <ele>307</ele>
        <time>2021-07-04T14:03:44Z</time>
      </trkpt>
      <trkpt lat="44.30836" lon="4.45837">
        <ele>307</ele>
        <time>2021-07-04T14:03:47Z</time>
      </trkpt>
      <trkpt lat="44.30837" lon="4.45817">
        <ele>307</ele>
        <time>2021-07-04T14:03:50Z</time>
      </trkpt>
      <trkpt lat="44.30844" lon="4.45798">
        <ele>308</ele>
        <time>2021-07-04T14:03:54Z</time>
      </trkpt>
      <trkpt lat="44.30848" lon="4.45751">
        <ele>308</ele>
        <time>2021-07-04T14:04:02Z</time>
      </trkpt>
      <trkpt lat="44.30882" lon="4.45734">
        <ele>309</ele>
        <time>2021-07-04T14:04:10Z</time>
      </trkpt>
      <trkpt lat="44.30913" lon="4.45728">
        <ele>309</ele>
        <time>2021-07-04T14:04:18Z</time>
      </trkpt>
      <trkpt lat="44.30942" lon="4.45712">
        <ele>310</ele>
        <time>2021-07-04T14:04:25Z</time>
      </trkpt>
      <trkpt lat="44.30957" lon="4.45692">
        <ele>310</ele>
        <time>2021-07-04T14:04:30Z</time>
      </trkpt>
      <trkpt lat="44.30975" lon="4.45601">
        <ele>310</ele>
        <time>2021-07-04T14:04:46Z</time>
      </trkpt>
      <trkpt lat="44.30969" lon="4.45385">
        <ele>309</ele>
        <time>2021-07-04T14:05:22Z</time>
      </trkpt>
      <trkpt lat="44.30975" lon="4.45359">
        <ele>308</ele>
        <time>2021-07-04T14:05:26Z</time>
      </trkpt>
      <trkpt lat="44.30991" lon="4.45337">
        <ele>309</ele>
        <time>2021-07-04T14:05:31Z</time>
      </trkpt>
      <trkpt lat="44.30952" lon="4.45163">
        <ele>300</ele>
        <time>2021-07-04T14:06:02Z</time>
      </trkpt>
      <trkpt lat="44.30932" lon="4.45137">
        <ele>299</ele>
        <time>2021-07-04T14:06:08Z</time>
      </trkpt>
      <trkpt lat="44.30929" lon="4.45118">
        <ele>298</ele>
        <time>2021-07-04T14:06:12Z</time>
      </trkpt>
      <trkpt lat="44.30917" lon="4.451">
        <ele>298</ele>
        <time>2021-07-04T14:06:16Z</time>
      </trkpt>
      <trkpt lat="44.30912" lon="4.45088">
        <ele>297</ele>
        <time>2021-07-04T14:06:18Z</time>
      </trkpt>
      <trkpt lat="44.30901" lon="4.4502">
        <ele>295</ele>
        <time>2021-07-04T14:06:30Z</time>
      </trkpt>
      <trkpt lat="44.30881" lon="4.44946">
        <ele>292</ele>
        <time>2021-07-04T14:06:43Z</time>
      </trkpt>
      <trkpt lat="44.30876" lon="4.44909">
        <ele>291</ele>
        <time>2021-07-04T14:06:49Z</time>
      </trkpt>
      <trkpt lat="44.30846" lon="4.44784">
        <ele>286</ele>
        <time>2021-07-04T14:07:11Z</time>
      </trkpt>
      <trkpt lat="44.3083" lon="4.44694">
        <ele>284</ele>
        <time>2021-07-04T14:07:27Z</time>
      </trkpt>
      <trkpt lat="44.30823" lon="4.44668">
        <ele>284</ele>
        <time>2021-07-04T14:07:31Z</time>
      </trkpt>
      <trkpt lat="44.30813" lon="4.44664">
        <ele>284</ele>
        <time>2021-07-04T14:07:34Z</time>
      </trkpt>
      <trkpt lat="44.30806" lon="4.44619">
        <ele>282</ele>
        <time>2021-07-04T14:07:41Z</time>
      </trkpt>
      <trkpt lat="44.30806" lon="4.44599">
        <ele>281</ele>
        <time>2021-07-04T14:07:45Z</time>
      </trkpt>
      <trkpt lat="44.30794" lon="4.44586">
        <ele>281</ele>
        <time>2021-07-04T14:07:48Z</time>
      </trkpt>
      <trkpt lat="44.30779" lon="4.44577">
        <ele>281</ele>
        <time>2021-07-04T14:07:52Z</time>
      </trkpt>
      <trkpt lat="44.30764" lon="4.44574">
        <ele>282</ele>
        <time>2021-07-04T14:07:56Z</time>
      </trkpt>
      <trkpt lat="44.30736" lon="4.4453">
        <ele>282</ele>
        <time>2021-07-04T14:08:06Z</time>
      </trkpt>
      <trkpt lat="44.30715" lon="4.44486">
        <ele>281</ele>
        <time>2021-07-04T14:08:14Z</time>
      </trkpt>
      <trkpt lat="44.3075" lon="4.44461">
        <ele>280</ele>
        <time>2021-07-04T14:08:24Z</time>
      </trkpt>
      <trkpt lat="44.30794" lon="4.44466">
        <ele>276</ele>
        <time>2021-07-04T14:08:34Z</time>
      </trkpt>
      <trkpt lat="44.30811" lon="4.44459">
        <ele>273</ele>
        <time>2021-07-04T14:08:38Z</time>
      </trkpt>
      <trkpt lat="44.3085" lon="4.44458">
        <ele>268</ele>
        <time>2021-07-04T14:08:47Z</time>
      </trkpt>
      <trkpt lat="44.30891" lon="4.44472">
        <ele>263</ele>
        <time>2021-07-04T14:08:57Z</time>
      </trkpt>
      <trkpt lat="44.30919" lon="4.44468">
        <ele>259</ele>
        <time>2021-07-04T14:09:04Z</time>
      </trkpt>
      <trkpt lat="44.30945" lon="4.44455">
        <ele>256</ele>
        <time>2021-07-04T14:09:10Z</time>
      </trkpt>
      <trkpt lat="44.30983" lon="4.44458">
        <ele>255</ele>
        <time>2021-07-04T14:09:19Z</time>
      </trkpt>
      <trkpt lat="44.31" lon="4.44457">
        <ele>254</ele>
        <time>2021-07-04T14:09:23Z</time>
      </trkpt>
      <trkpt lat="44.31022" lon="4.44443">
        <ele>257</ele>
        <time>2021-07-04T14:09:29Z</time>
      </trkpt>
      <trkpt lat="44.31015" lon="4.44426">
        <ele>255</ele>
        <time>2021-07-04T14:09:32Z</time>
      </trkpt>
      <trkpt lat="44.3098" lon="4.4443">
        <ele>253</ele>
        <time>2021-07-04T14:09:40Z</time>
      </trkpt>
      <trkpt lat="44.3096" lon="4.44423">
        <ele>253</ele>
        <time>2021-07-04T14:09:45Z</time>
      </trkpt>
      <trkpt lat="44.30944" lon="4.44392">
        <ele>253</ele>
        <time>2021-07-04T14:09:51Z</time>
      </trkpt>
      <trkpt lat="44.3093" lon="4.44373">
        <ele>253</ele>
        <time>2021-07-04T14:09:56Z</time>
      </trkpt>
      <trkpt lat="44.30909" lon="4.44356">
        <ele>253</ele>
        <time>2021-07-04T14:10:01Z</time>
      </trkpt>
      <trkpt lat="44.309" lon="4.44342">
        <ele>254</ele>
        <time>2021-07-04T14:10:05Z</time>
      </trkpt>
      <trkpt lat="44.30895" lon="4.44315">
        <ele>254</ele>
        <time>2021-07-04T14:10:09Z</time>
      </trkpt>
      <trkpt lat="44.30883" lon="4.44294">
        <ele>255</ele>
        <time>2021-07-04T14:10:14Z</time>
      </trkpt>
      <trkpt lat="44.30873" lon="4.4427">
        <ele>256</ele>
        <time>2021-07-04T14:10:18Z</time>
      </trkpt>
      <trkpt lat="44.30868" lon="4.44238">
        <ele>256</ele>
        <time>2021-07-04T14:10:24Z</time>
      </trkpt>
      <trkpt lat="44.30876" lon="4.44214">
        <ele>254</ele>
        <time>2021-07-04T14:10:28Z</time>
      </trkpt>
      <trkpt lat="44.30886" lon="4.44198">
        <ele>253</ele>
        <time>2021-07-04T14:10:32Z</time>
      </trkpt>
      <trkpt lat="44.30898" lon="4.44134">
        <ele>250</ele>
        <time>2021-07-04T14:10:43Z</time>
      </trkpt>
      <trkpt lat="44.30898" lon="4.44113">
        <ele>250</ele>
        <time>2021-07-04T14:10:46Z</time>
      </trkpt>
      <trkpt lat="44.30889" lon="4.44052">
        <ele>250</ele>
        <time>2021-07-04T14:10:57Z</time>
      </trkpt>
      <trkpt lat="44.30879" lon="4.44034">
        <ele>250</ele>
        <time>2021-07-04T14:11:01Z</time>
      </trkpt>
      <trkpt lat="44.3085" lon="4.43994">
        <ele>247</ele>
        <time>2021-07-04T14:11:10Z</time>
      </trkpt>
      <trkpt lat="44.30813" lon="4.43958">
        <ele>245</ele>
        <time>2021-07-04T14:11:21Z</time>
      </trkpt>
      <trkpt lat="44.30791" lon="4.43918">
        <ele>243</ele>
        <time>2021-07-04T14:11:29Z</time>
      </trkpt>
      <trkpt lat="44.30775" lon="4.43902">
        <ele>244</ele>
        <time>2021-07-04T14:11:34Z</time>
      </trkpt>
      <trkpt lat="44.30752" lon="4.43896">
        <ele>245</ele>
        <time>2021-07-04T14:11:39Z</time>
      </trkpt>
      <trkpt lat="44.30725" lon="4.43898">
        <ele>244</ele>
        <time>2021-07-04T14:11:45Z</time>
      </trkpt>
      <trkpt lat="44.3071" lon="4.43893">
        <ele>245</ele>
        <time>2021-07-04T14:11:49Z</time>
      </trkpt>
      <trkpt lat="44.30691" lon="4.43872">
        <ele>249</ele>
        <time>2021-07-04T14:11:55Z</time>
      </trkpt>
      <trkpt lat="44.30674" lon="4.43847">
        <ele>254</ele>
        <time>2021-07-04T14:12:00Z</time>
      </trkpt>
      <trkpt lat="44.30665" lon="4.43823">
        <ele>258</ele>
        <time>2021-07-04T14:12:05Z</time>
      </trkpt>
      <trkpt lat="44.30657" lon="4.43817">
        <ele>259</ele>
        <time>2021-07-04T14:12:07Z</time>
      </trkpt>
      <trkpt lat="44.30654" lon="4.43793">
        <ele>263</ele>
        <time>2021-07-04T14:12:11Z</time>
      </trkpt>
      <trkpt lat="44.30659" lon="4.4373">
        <ele>272</ele>
        <time>2021-07-04T14:12:22Z</time>
      </trkpt>
      <trkpt lat="44.30663" lon="4.43687">
        <ele>276</ele>
        <time>2021-07-04T14:12:29Z</time>
      </trkpt>
      <trkpt lat="44.30672" lon="4.43647">
        <ele>279</ele>
        <time>2021-07-04T14:12:36Z</time>
      </trkpt>
      <trkpt lat="44.30674" lon="4.43626">
        <ele>280</ele>
        <time>2021-07-04T14:12:40Z</time>
      </trkpt>
      <trkpt lat="44.30671" lon="4.43606">
        <ele>281</ele>
        <time>2021-07-04T14:12:43Z</time>
      </trkpt>
      <trkpt lat="44.30661" lon="4.43586">
        <ele>282</ele>
        <time>2021-07-04T14:12:47Z</time>
      </trkpt>
      <trkpt lat="44.30667" lon="4.43527">
        <ele>285</ele>
        <time>2021-07-04T14:12:57Z</time>
      </trkpt>
      <trkpt lat="44.30652" lon="4.43508">
        <ele>286</ele>
        <time>2021-07-04T14:13:02Z</time>
      </trkpt>
      <trkpt lat="44.30627" lon="4.43488">
        <ele>287</ele>
        <time>2021-07-04T14:13:08Z</time>
      </trkpt>
      <trkpt lat="44.30615" lon="4.43475">
        <ele>288</ele>
        <time>2021-07-04T14:13:12Z</time>
      </trkpt>
      <trkpt lat="44.30608" lon="4.43461">
        <ele>289</ele>
        <time>2021-07-04T14:13:15Z</time>
      </trkpt>
      <trkpt lat="44.30596" lon="4.43457">
        <ele>290</ele>
        <time>2021-07-04T14:13:18Z</time>
      </trkpt>
      <trkpt lat="44.30582" lon="4.43447">
        <ele>291</ele>
        <time>2021-07-04T14:13:21Z</time>
      </trkpt>
      <trkpt lat="44.30608" lon="4.43278">
        <ele>292</ele>
        <time>2021-07-04T14:13:50Z</time>
      </trkpt>
      <trkpt lat="44.30615" lon="4.4325">
        <ele>291</ele>
        <time>2021-07-04T14:13:55Z</time>
      </trkpt>
      <trkpt lat="44.30625" lon="4.43178">
        <ele>285</ele>
        <time>2021-07-04T14:14:08Z</time>
      </trkpt>
      <trkpt lat="44.30631" lon="4.43158">
        <ele>284</ele>
        <time>2021-07-04T14:14:11Z</time>
      </trkpt>
      <trkpt lat="44.30646" lon="4.43138">
        <ele>283</ele>
        <time>2021-07-04T14:14:16Z</time>
      </trkpt>
      <trkpt lat="44.30695" lon="4.43122">
        <ele>284</ele>
        <time>2021-07-04T14:14:28Z</time>
      </trkpt>
      <trkpt lat="44.30721" lon="4.43106">
        <ele>284</ele>
        <time>2021-07-04T14:14:34Z</time>
      </trkpt>
      <trkpt lat="44.30767" lon="4.4304">
        <ele>282</ele>
        <time>2021-07-04T14:14:50Z</time>
      </trkpt>
      <trkpt lat="44.30823" lon="4.42979">
        <ele>284</ele>
        <time>2021-07-04T14:15:06Z</time>
      </trkpt>
      <trkpt lat="44.30817" lon="4.42951">
        <ele>284</ele>
        <time>2021-07-04T14:15:11Z</time>
      </trkpt>
      <trkpt lat="44.30807" lon="4.42935">
        <ele>284</ele>
        <time>2021-07-04T14:15:15Z</time>
      </trkpt>
      <trkpt lat="44.30797" lon="4.42927">
        <ele>284</ele>
        <time>2021-07-04T14:15:17Z</time>
      </trkpt>
      <trkpt lat="44.30765" lon="4.42928">
        <ele>282</ele>
        <time>2021-07-04T14:15:25Z</time>
      </trkpt>
      <trkpt lat="44.30715" lon="4.42922">
        <ele>280</ele>
        <time>2021-07-04T14:15:37Z</time>
      </trkpt>
      <trkpt lat="44.30625" lon="4.4289">
        <ele>279</ele>
        <time>2021-07-04T14:15:58Z</time>
      </trkpt>
      <trkpt lat="44.30576" lon="4.42867">
        <ele>280</ele>
        <time>2021-07-04T14:16:10Z</time>
      </trkpt>
      <trkpt lat="44.30572" lon="4.42851">
        <ele>282</ele>
        <time>2021-07-04T14:16:13Z</time>
      </trkpt>
      <trkpt lat="44.30555" lon="4.42833">
        <ele>284</ele>
        <time>2021-07-04T14:16:18Z</time>
      </trkpt>
      <trkpt lat="44.30549" lon="4.42802">
        <ele>285</ele>
        <time>2021-07-04T14:16:24Z</time>
      </trkpt>
      <trkpt lat="44.30544" lon="4.42752">
        <ele>287</ele>
        <time>2021-07-04T14:16:32Z</time>
      </trkpt>
      <trkpt lat="44.30559" lon="4.42677">
        <ele>289</ele>
        <time>2021-07-04T14:16:45Z</time>
      </trkpt>
      <trkpt lat="44.3054" lon="4.4262">
        <ele>288</ele>
        <time>2021-07-04T14:16:56Z</time>
      </trkpt>
      <trkpt lat="44.30534" lon="4.42585">
        <ele>288</ele>
        <time>2021-07-04T14:17:02Z</time>
      </trkpt>
      <trkpt lat="44.30512" lon="4.42529">
        <ele>285</ele>
        <time>2021-07-04T14:17:12Z</time>
      </trkpt>
      <trkpt lat="44.30496" lon="4.42459">
        <ele>282</ele>
        <time>2021-07-04T14:17:25Z</time>
      </trkpt>
      <trkpt lat="44.30483" lon="4.42449">
        <ele>281</ele>
        <time>2021-07-04T14:17:28Z</time>
      </trkpt>
      <trkpt lat="44.30465" lon="4.42402">
        <ele>279</ele>
        <time>2021-07-04T14:17:37Z</time>
      </trkpt>
      <trkpt lat="44.30431" lon="4.42352">
        <ele>278</ele>
        <time>2021-07-04T14:17:48Z</time>
      </trkpt>
      <trkpt lat="44.30432" lon="4.42336">
        <ele>277</ele>
        <time>2021-07-04T14:17:51Z</time>
      </trkpt>
      <trkpt lat="44.30446" lon="4.42326">
        <ele>277</ele>
        <time>2021-07-04T14:17:55Z</time>
      </trkpt>
      <trkpt lat="44.30436" lon="4.42296">
        <ele>276</ele>
        <time>2021-07-04T14:18:00Z</time>
      </trkpt>
      <trkpt lat="44.3042" lon="4.42276">
        <ele>274</ele>
        <time>2021-07-04T14:18:05Z</time>
      </trkpt>
      <trkpt lat="44.30416" lon="4.4226">
        <ele>274</ele>
        <time>2021-07-04T14:18:08Z</time>
      </trkpt>
      <trkpt lat="44.30407" lon="4.42251">
        <ele>274</ele>
        <time>2021-07-04T14:18:11Z</time>
      </trkpt>
      <trkpt lat="44.30379" lon="4.42174">
        <ele>274</ele>
        <time>2021-07-04T14:18:25Z</time>
      </trkpt>
      <trkpt lat="44.3037" lon="4.42163">
        <ele>274</ele>
        <time>2021-07-04T14:18:28Z</time>
      </trkpt>
      <trkpt lat="44.30369" lon="4.42151">
        <ele>273</ele>
        <time>2021-07-04T14:18:30Z</time>
      </trkpt>
      <trkpt lat="44.3036" lon="4.42127">
        <ele>272</ele>
        <time>2021-07-04T14:18:35Z</time>
      </trkpt>
      <trkpt lat="44.30347" lon="4.42073">
        <ele>270</ele>
        <time>2021-07-04T14:18:44Z</time>
      </trkpt>
      <trkpt lat="44.30326" lon="4.42007">
        <ele>266</ele>
        <time>2021-07-04T14:18:56Z</time>
      </trkpt>
      <trkpt lat="44.30303" lon="4.41968">
        <ele>264</ele>
        <time>2021-07-04T14:19:05Z</time>
      </trkpt>
      <trkpt lat="44.30296" lon="4.41951">
        <ele>263</ele>
        <time>2021-07-04T14:19:08Z</time>
      </trkpt>
      <trkpt lat="44.30302" lon="4.41893">
        <ele>262</ele>
        <time>2021-07-04T14:19:18Z</time>
      </trkpt>
      <trkpt lat="44.30299" lon="4.41875">
        <ele>263</ele>
        <time>2021-07-04T14:19:21Z</time>
      </trkpt>
      <trkpt lat="44.30283" lon="4.41827">
        <ele>263</ele>
        <time>2021-07-04T14:19:30Z</time>
      </trkpt>
      <trkpt lat="44.30248" lon="4.41749">
        <ele>266</ele>
        <time>2021-07-04T14:19:45Z</time>
      </trkpt>
      <trkpt lat="44.30236" lon="4.41709">
        <ele>266</ele>
        <time>2021-07-04T14:19:52Z</time>
      </trkpt>
      <trkpt lat="44.30211" lon="4.41644">
        <ele>266</ele>
        <time>2021-07-04T14:20:05Z</time>
      </trkpt>
      <trkpt lat="44.30203" lon="4.4162">
        <ele>266</ele>
        <time>2021-07-04T14:20:09Z</time>
      </trkpt>
      <trkpt lat="44.30178" lon="4.41517">
        <ele>266</ele>
        <time>2021-07-04T14:20:27Z</time>
      </trkpt>
      <trkpt lat="44.30195" lon="4.41509">
        <ele>267</ele>
        <time>2021-07-04T14:20:31Z</time>
      </trkpt>
      <trkpt lat="44.30208" lon="4.41494">
        <ele>268</ele>
        <time>2021-07-04T14:20:35Z</time>
      </trkpt>
      <trkpt lat="44.30244" lon="4.41485">
        <ele>269</ele>
        <time>2021-07-04T14:20:44Z</time>
      </trkpt>
      <trkpt lat="44.30301" lon="4.41466">
        <ele>269</ele>
        <time>2021-07-04T14:20:58Z</time>
      </trkpt>
      <trkpt lat="44.30317" lon="4.41467">
        <ele>270</ele>
        <time>2021-07-04T14:21:01Z</time>
      </trkpt>
      <trkpt lat="44.30334" lon="4.4148">
        <ele>270</ele>
        <time>2021-07-04T14:21:06Z</time>
      </trkpt>
      <trkpt lat="44.30348" lon="4.41503">
        <ele>272</ele>
        <time>2021-07-04T14:21:11Z</time>
      </trkpt>
      <trkpt lat="44.30402" lon="4.41536">
        <ele>275</ele>
        <time>2021-07-04T14:21:25Z</time>
      </trkpt>
      <trkpt lat="44.30443" lon="4.41567">
        <ele>278</ele>
        <time>2021-07-04T14:21:35Z</time>
      </trkpt>
      <trkpt lat="44.30478" lon="4.4159">
        <ele>279</ele>
        <time>2021-07-04T14:21:45Z</time>
      </trkpt>
      <trkpt lat="44.30502" lon="4.4159">
        <ele>279</ele>
        <time>2021-07-04T14:21:50Z</time>
      </trkpt>
      <trkpt lat="44.30536" lon="4.41577">
        <ele>278</ele>
        <time>2021-07-04T14:21:58Z</time>
      </trkpt>
      <trkpt lat="44.30543" lon="4.41566">
        <ele>278</ele>
        <time>2021-07-04T14:22:01Z</time>
      </trkpt>
      <trkpt lat="44.30562" lon="4.41558">
        <ele>277</ele>
        <time>2021-07-04T14:22:05Z</time>
      </trkpt>
      <trkpt lat="44.30575" lon="4.41546">
        <ele>277</ele>
        <time>2021-07-04T14:22:09Z</time>
      </trkpt>
      <trkpt lat="44.30592" lon="4.41536">
        <ele>277</ele>
        <time>2021-07-04T14:22:13Z</time>
      </trkpt>
      <trkpt lat="44.30628" lon="4.41554">
        <ele>278</ele>
        <time>2021-07-04T14:22:22Z</time>
      </trkpt>
      <trkpt lat="44.30651" lon="4.41554">
        <ele>279</ele>
        <time>2021-07-04T14:22:28Z</time>
      </trkpt>
      <trkpt lat="44.30691" lon="4.41526">
        <ele>278</ele>
        <time>2021-07-04T14:22:38Z</time>
      </trkpt>
      <trkpt lat="44.30723" lon="4.41496">
        <ele>276</ele>
        <time>2021-07-04T14:22:47Z</time>
      </trkpt>
      <trkpt lat="44.30783" lon="4.41501">
        <ele>273</ele>
        <time>2021-07-04T14:23:01Z</time>
      </trkpt>
      <trkpt lat="44.30793" lon="4.41497">
        <ele>272</ele>
        <time>2021-07-04T14:23:04Z</time>
      </trkpt>
      <trkpt lat="44.3081" lon="4.41466">
        <ele>268</ele>
        <time>2021-07-04T14:23:10Z</time>
      </trkpt>
      <trkpt lat="44.30817" lon="4.41447">
        <ele>267</ele>
        <time>2021-07-04T14:23:14Z</time>
      </trkpt>
      <trkpt lat="44.3083" lon="4.41444">
        <ele>266</ele>
        <time>2021-07-04T14:23:17Z</time>
      </trkpt>
      <trkpt lat="44.30869" lon="4.4145">
        <ele>265</ele>
        <time>2021-07-04T14:23:26Z</time>
      </trkpt>
      <trkpt lat="44.30882" lon="4.41439">
        <ele>265</ele>
        <time>2021-07-04T14:23:29Z</time>
      </trkpt>
      <trkpt lat="44.30889" lon="4.41418">
        <ele>265</ele>
        <time>2021-07-04T14:23:33Z</time>
      </trkpt>
      <trkpt lat="44.30949" lon="4.41283">
        <ele>270</ele>
        <time>2021-07-04T14:24:00Z</time>
      </trkpt>
      <trkpt lat="44.30968" lon="4.41273">
        <ele>271</ele>
        <time>2021-07-04T14:24:05Z</time>
      </trkpt>
      <trkpt lat="44.30991" lon="4.41248">
        <ele>273</ele>
        <time>2021-07-04T14:24:11Z</time>
      </trkpt>
      <trkpt lat="44.3101" lon="4.41244">
        <ele>275</ele>
        <time>2021-07-04T14:24:16Z</time>
      </trkpt>
      <trkpt lat="44.31042" lon="4.41198">
        <ele>276</ele>
        <time>2021-07-04T14:24:27Z</time>
      </trkpt>
      <trkpt lat="44.31061" lon="4.41188">
        <ele>277</ele>
        <time>2021-07-04T14:24:31Z</time>
      </trkpt>
      <trkpt lat="44.31074" lon="4.41178">
        <ele>277</ele>
        <time>2021-07-04T14:24:35Z</time>
      </trkpt>
      <trkpt lat="44.31128" lon="4.41177">
        <ele>280</ele>
        <time>2021-07-04T14:24:47Z</time>
      </trkpt>
      <trkpt lat="44.31193" lon="4.41171">
        <ele>282</ele>
        <time>2021-07-04T14:25:03Z</time>
      </trkpt>
      <trkpt lat="44.31221" lon="4.41144">
        <ele>283</ele>
        <time>2021-07-04T14:25:11Z</time>
      </trkpt>
      <trkpt lat="44.31281" lon="4.41097">
        <ele>285</ele>
        <time>2021-07-04T14:25:27Z</time>
      </trkpt>
      <trkpt lat="44.31306" lon="4.40983">
        <ele>283</ele>
        <time>2021-07-04T14:25:47Z</time>
      </trkpt>
      <trkpt lat="44.3132" lon="4.40988">
        <ele>282</ele>
        <time>2021-07-04T14:25:50Z</time>
      </trkpt>
      <trkpt lat="44.31329" lon="4.40987">
        <ele>282</ele>
        <time>2021-07-04T14:25:52Z</time>
      </trkpt>
      <trkpt lat="44.31338" lon="4.41021">
        <ele>283</ele>
        <time>2021-07-04T14:25:58Z</time>
      </trkpt>
      <trkpt lat="44.31349" lon="4.41047">
        <ele>284</ele>
        <time>2021-07-04T14:26:03Z</time>
      </trkpt>
      <trkpt lat="44.31363" lon="4.41062">
        <ele>285</ele>
        <time>2021-07-04T14:26:07Z</time>
      </trkpt>
      <trkpt lat="44.31391" lon="4.41082">
        <ele>286</ele>
        <time>2021-07-04T14:26:15Z</time>
      </trkpt>
      <trkpt lat="44.31468" lon="4.41084">
        <ele>288</ele>
        <time>2021-07-04T14:26:33Z</time>
      </trkpt>
      <trkpt lat="44.31609" lon="4.4108">
        <ele>293</ele>
        <time>2021-07-04T14:27:06Z</time>
      </trkpt>
      <trkpt lat="44.3165" lon="4.41084">
        <ele>294</ele>
        <time>2021-07-04T14:27:15Z</time>
      </trkpt>
      <trkpt lat="44.31692" lon="4.41099">
        <ele>296</ele>
        <time>2021-07-04T14:27:25Z</time>
      </trkpt>
      <trkpt lat="44.31744" lon="4.41148">
        <ele>299</ele>
        <time>2021-07-04T14:27:40Z</time>
      </trkpt>
      <trkpt lat="44.31752" lon="4.41124">
        <ele>299</ele>
        <time>2021-07-04T14:27:44Z</time>
      </trkpt>
      <trkpt lat="44.3176" lon="4.4114">
        <ele>299</ele>
        <time>2021-07-04T14:27:48Z</time>
      </trkpt>
      <trkpt lat="44.31781" lon="4.4115">
        <ele>301</ele>
        <time>2021-07-04T14:27:53Z</time>
      </trkpt>
      <trkpt lat="44.31832" lon="4.41208">
        <ele>303</ele>
        <time>2021-07-04T14:28:08Z</time>
      </trkpt>
      <trkpt lat="44.31829" lon="4.41182">
        <ele>303</ele>
        <time>2021-07-04T14:28:13Z</time>
      </trkpt>
      <trkpt lat="44.3183" lon="4.4115">
        <ele>304</ele>
        <time>2021-07-04T14:28:18Z</time>
      </trkpt>
      <trkpt lat="44.31838" lon="4.41142">
        <ele>304</ele>
        <time>2021-07-04T14:28:20Z</time>
      </trkpt>
      <trkpt lat="44.31832" lon="4.4112">
        <ele>304</ele>
        <time>2021-07-04T14:28:24Z</time>
      </trkpt>
      <trkpt lat="44.31833" lon="4.4109">
        <ele>304</ele>
        <time>2021-07-04T14:28:29Z</time>
      </trkpt>
      <trkpt lat="44.31811" lon="4.41081">
        <ele>302</ele>
        <time>2021-07-04T14:28:35Z</time>
      </trkpt>
      <trkpt lat="44.31778" lon="4.41073">
        <ele>300</ele>
        <time>2021-07-04T14:28:42Z</time>
      </trkpt>
      <trkpt lat="44.31778" lon="4.41058">
        <ele>300</ele>
        <time>2021-07-04T14:28:45Z</time>
      </trkpt>
      <trkpt lat="44.31795" lon="4.41028">
        <ele>301</ele>
        <time>2021-07-04T14:28:51Z</time>
      </trkpt>
      <trkpt lat="44.31814" lon="4.41001">
        <ele>302</ele>
        <time>2021-07-04T14:28:58Z</time>
      </trkpt>
      <trkpt lat="44.31821" lon="4.40957">
        <ele>302</ele>
        <time>2021-07-04T14:29:05Z</time>
      </trkpt>
      <trkpt lat="44.31831" lon="4.4094">
        <ele>303</ele>
        <time>2021-07-04T14:29:09Z</time>
      </trkpt>
      <trkpt lat="44.31841" lon="4.40907">
        <ele>303</ele>
        <time>2021-07-04T14:29:15Z</time>
      </trkpt>
      <trkpt lat="44.31865" lon="4.40867">
        <ele>301</ele>
        <time>2021-07-04T14:29:24Z</time>
      </trkpt>
      <trkpt lat="44.31867" lon="4.40848">
        <ele>300</ele>
        <time>2021-07-04T14:29:27Z</time>
      </trkpt>
      <trkpt lat="44.31884" lon="4.40806">
        <ele>296</ele>
        <time>2021-07-04T14:29:35Z</time>
      </trkpt>
      <trkpt lat="44.31904" lon="4.40785">
        <ele>294</ele>
        <time>2021-07-04T14:29:41Z</time>
      </trkpt>
      <trkpt lat="44.31935" lon="4.40771">
        <ele>294</ele>
        <time>2021-07-04T14:29:48Z</time>
      </trkpt>
      <trkpt lat="44.3195" lon="4.40746">
        <ele>293</ele>
        <time>2021-07-04T14:29:54Z</time>
      </trkpt>
      <trkpt lat="44.31969" lon="4.4074">
        <ele>294</ele>
        <time>2021-07-04T14:29:58Z</time>
      </trkpt>
      <trkpt lat="44.31994" lon="4.40726">
        <ele>296</ele>
        <time>2021-07-04T14:30:05Z</time>
      </trkpt>
      <trkpt lat="44.31942" lon="4.40713">
        <ele>292</ele>
        <time>2021-07-04T14:30:17Z</time>
      </trkpt>
      <trkpt lat="44.31929" lon="4.40699">
        <ele>290</ele>
        <time>2021-07-04T14:30:21Z</time>
      </trkpt>
      <trkpt lat="44.31909" lon="4.40691">
        <ele>289</ele>
        <time>2021-07-04T14:30:26Z</time>
      </trkpt>
      <trkpt lat="44.31897" lon="4.40677">
        <ele>288</ele>
        <time>2021-07-04T14:30:29Z</time>
      </trkpt>
      <trkpt lat="44.3188" lon="4.40669">
        <ele>287</ele>
        <time>2021-07-04T14:30:33Z</time>
      </trkpt>
      <trkpt lat="44.31865" lon="4.40675">
        <ele>287</ele>
        <time>2021-07-04T14:30:37Z</time>
      </trkpt>
      <trkpt lat="44.31848" lon="4.40669">
        <ele>286</ele>
        <time>2021-07-04T14:30:41Z</time>
      </trkpt>
      <trkpt lat="44.31831" lon="4.4067">
        <ele>285</ele>
        <time>2021-07-04T14:30:45Z</time>
      </trkpt>
      <trkpt lat="44.31813" lon="4.40663">
        <ele>284</ele>
        <time>2021-07-04T14:30:49Z</time>
      </trkpt>
      <trkpt lat="44.31792" lon="4.40648">
        <ele>285</ele>
        <time>2021-07-04T14:30:55Z</time>
      </trkpt>
      <trkpt lat="44.31778" lon="4.40633">
        <ele>285</ele>
        <time>2021-07-04T14:30:59Z</time>
      </trkpt>
      <trkpt lat="44.31756" lon="4.40625">
        <ele>284</ele>
        <time>2021-07-04T14:31:04Z</time>
      </trkpt>
      <trkpt lat="44.31762" lon="4.40613">
        <ele>285</ele>
        <time>2021-07-04T14:31:07Z</time>
      </trkpt>
      <trkpt lat="44.31776" lon="4.406">
        <ele>286</ele>
        <time>2021-07-04T14:31:11Z</time>
      </trkpt>
      <trkpt lat="44.31781" lon="4.40579">
        <ele>288</ele>
        <time>2021-07-04T14:31:14Z</time>
      </trkpt>
      <trkpt lat="44.31781" lon="4.40562">
        <ele>289</ele>
        <time>2021-07-04T14:31:17Z</time>
      </trkpt>
      <trkpt lat="44.31798" lon="4.40543">
        <ele>292</ele>
        <time>2021-07-04T14:31:22Z</time>
      </trkpt>
      <trkpt lat="44.3183" lon="4.4052">
        <ele>296</ele>
        <time>2021-07-04T14:31:31Z</time>
      </trkpt>
      <trkpt lat="44.31817" lon="4.40509">
        <ele>296</ele>
        <time>2021-07-04T14:31:34Z</time>
      </trkpt>
      <trkpt lat="44.31808" lon="4.4047">
        <ele>297</ele>
        <time>2021-07-04T14:31:41Z</time>
      </trkpt>
      <trkpt lat="44.31801" lon="4.4045">
        <ele>297</ele>
        <time>2021-07-04T14:31:45Z</time>
      </trkpt>
      <trkpt lat="44.31798" lon="4.40425">
        <ele>297</ele>
        <time>2021-07-04T14:31:49Z</time>
      </trkpt>
      <trkpt lat="44.31776" lon="4.40416">
        <ele>296</ele>
        <time>2021-07-04T14:31:54Z</time>
      </trkpt>
      <trkpt lat="44.3173" lon="4.40406">
        <ele>292</ele>
        <time>2021-07-04T14:32:05Z</time>
      </trkpt>
      <trkpt lat="44.31702" lon="4.40414">
        <ele>289</ele>
        <time>2021-07-04T14:32:12Z</time>
      </trkpt>
      <trkpt lat="44.31697" lon="4.40423">
        <ele>289</ele>
        <time>2021-07-04T14:32:14Z</time>
      </trkpt>
      <trkpt lat="44.31659" lon="4.4042">
        <ele>285</ele>
        <time>2021-07-04T14:32:23Z</time>
      </trkpt>
      <trkpt lat="44.31646" lon="4.40416">
        <ele>284</ele>
        <time>2021-07-04T14:32:26Z</time>
      </trkpt>
      <trkpt lat="44.31643" lon="4.40396">
        <ele>284</ele>
        <time>2021-07-04T14:32:29Z</time>
      </trkpt>
      <trkpt lat="44.31646" lon="4.40376">
        <ele>284</ele>
        <time>2021-07-04T14:32:33Z</time>
      </trkpt>
      <trkpt lat="44.31641" lon="4.40355">
        <ele>283</ele>
        <time>2021-07-04T14:32:36Z</time>
      </trkpt>
      <trkpt lat="44.3164" lon="4.40338">
        <ele>283</ele>
        <time>2021-07-04T14:32:39Z</time>
      </trkpt>
      <trkpt lat="44.31622" lon="4.40335">
        <ele>282</ele>
        <time>2021-07-04T14:32:44Z</time>
      </trkpt>
      <trkpt lat="44.31586" lon="4.4034">
        <ele>280</ele>
        <time>2021-07-04T14:32:52Z</time>
      </trkpt>
      <trkpt lat="44.31555" lon="4.40339">
        <ele>278</ele>
        <time>2021-07-04T14:32:59Z</time>
      </trkpt>
      <trkpt lat="44.3153" lon="4.40345">
        <ele>277</ele>
        <time>2021-07-04T14:33:05Z</time>
      </trkpt>
      <trkpt lat="44.31516" lon="4.40353">
        <ele>276</ele>
        <time>2021-07-04T14:33:09Z</time>
      </trkpt>
      <trkpt lat="44.31508" lon="4.40366">
        <ele>275</ele>
        <time>2021-07-04T14:33:12Z</time>
      </trkpt>
      <trkpt lat="44.31503" lon="4.40352">
        <ele>275</ele>
        <time>2021-07-04T14:33:14Z</time>
      </trkpt>
      <trkpt lat="44.31516" lon="4.40339">
        <ele>277</ele>
        <time>2021-07-04T14:33:18Z</time>
      </trkpt>
      <trkpt lat="44.31536" lon="4.40326">
        <ele>278</ele>
        <time>2021-07-04T14:33:23Z</time>
      </trkpt>
      <trkpt lat="44.31564" lon="4.4032">
        <ele>280</ele>
        <time>2021-07-04T14:33:30Z</time>
      </trkpt>
      <trkpt lat="44.31577" lon="4.40302">
        <ele>281</ele>
        <time>2021-07-04T14:33:34Z</time>
      </trkpt>
      <trkpt lat="44.31657" lon="4.40159">
        <ele>295</ele>
        <time>2021-07-04T14:34:04Z</time>
      </trkpt>
      <trkpt lat="44.31663" lon="4.40135">
        <ele>297</ele>
        <time>2021-07-04T14:34:09Z</time>
      </trkpt>
      <trkpt lat="44.31679" lon="4.40105">
        <ele>300</ele>
        <time>2021-07-04T14:34:15Z</time>
      </trkpt>
      <trkpt lat="44.31696" lon="4.401">
        <ele>301</ele>
        <time>2021-07-04T14:34:19Z</time>
      </trkpt>
      <trkpt lat="44.31703" lon="4.40116">
        <ele>301</ele>
        <time>2021-07-04T14:34:22Z</time>
      </trkpt>
      <trkpt lat="44.31739" lon="4.40116">
        <ele>303</ele>
        <time>2021-07-04T14:34:30Z</time>
      </trkpt>
      <trkpt lat="44.31766" lon="4.40095">
        <ele>305</ele>
        <time>2021-07-04T14:34:38Z</time>
      </trkpt>
      <trkpt lat="44.31786" lon="4.40075">
        <ele>308</ele>
        <time>2021-07-04T14:34:43Z</time>
      </trkpt>
      <trkpt lat="44.31808" lon="4.40065">
        <ele>309</ele>
        <time>2021-07-04T14:34:49Z</time>
      </trkpt>
      <trkpt lat="44.31812" lon="4.40048">
        <ele>310</ele>
        <time>2021-07-04T14:34:52Z</time>
      </trkpt>
      <trkpt lat="44.31811" lon="4.40036">
        <ele>311</ele>
        <time>2021-07-04T14:34:54Z</time>
      </trkpt>
      <trkpt lat="44.31804" lon="4.40016">
        <ele>311</ele>
        <time>2021-07-04T14:34:57Z</time>
      </trkpt>
      <trkpt lat="44.31797" lon="4.39982">
        <ele>313</ele>
        <time>2021-07-04T14:35:03Z</time>
      </trkpt>
      <trkpt lat="44.31768" lon="4.39937">
        <ele>314</ele>
        <time>2021-07-04T14:35:13Z</time>
      </trkpt>
      <trkpt lat="44.31764" lon="4.39923">
        <ele>315</ele>
        <time>2021-07-04T14:35:16Z</time>
      </trkpt>
      <trkpt lat="44.31754" lon="4.39904">
        <ele>314</ele>
        <time>2021-07-04T14:35:20Z</time>
      </trkpt>
      <trkpt lat="44.31754" lon="4.39889">
        <ele>314</ele>
        <time>2021-07-04T14:35:22Z</time>
      </trkpt>
      <trkpt lat="44.31739" lon="4.39883">
        <ele>314</ele>
        <time>2021-07-04T14:35:26Z</time>
      </trkpt>
      <trkpt lat="44.31711" lon="4.39899">
        <ele>313</ele>
        <time>2021-07-04T14:35:33Z</time>
      </trkpt>
      <trkpt lat="44.31701" lon="4.39901">
        <ele>313</ele>
        <time>2021-07-04T14:35:36Z</time>
      </trkpt>
      <trkpt lat="44.31653" lon="4.39893">
        <ele>311</ele>
        <time>2021-07-04T14:35:47Z</time>
      </trkpt>
      <trkpt lat="44.3162" lon="4.39896">
        <ele>310</ele>
        <time>2021-07-04T14:35:55Z</time>
      </trkpt>
      <trkpt lat="44.31596" lon="4.39912">
        <ele>310</ele>
        <time>2021-07-04T14:36:01Z</time>
      </trkpt>
      <trkpt lat="44.31531" lon="4.39942">
        <ele>306</ele>
        <time>2021-07-04T14:36:17Z</time>
      </trkpt>
      <trkpt lat="44.31483" lon="4.39997">
        <ele>302</ele>
        <time>2021-07-04T14:36:31Z</time>
      </trkpt>
      <trkpt lat="44.31472" lon="4.40001">
        <ele>301</ele>
        <time>2021-07-04T14:36:34Z</time>
      </trkpt>
      <trkpt lat="44.31319" lon="4.40024">
        <ele>286</ele>
        <time>2021-07-04T14:37:10Z</time>
      </trkpt>
      <trkpt lat="44.31271" lon="4.4002">
        <ele>281</ele>
        <time>2021-07-04T14:37:21Z</time>
      </trkpt>
      <trkpt lat="44.3125" lon="4.40026">
        <ele>278</ele>
        <time>2021-07-04T14:37:26Z</time>
      </trkpt>
      <trkpt lat="44.3121" lon="4.40049">
        <ele>274</ele>
        <time>2021-07-04T14:37:36Z</time>
      </trkpt>
      <trkpt lat="44.31195" lon="4.40071">
        <ele>271</ele>
        <time>2021-07-04T14:37:41Z</time>
      </trkpt>
      <trkpt lat="44.31172" lon="4.40093">
        <ele>267</ele>
        <time>2021-07-04T14:37:48Z</time>
      </trkpt>
      <trkpt lat="44.31144" lon="4.40112">
        <ele>264</ele>
        <time>2021-07-04T14:37:55Z</time>
      </trkpt>
      <trkpt lat="44.31107" lon="4.40132">
        <ele>260</ele>
        <time>2021-07-04T14:38:04Z</time>
      </trkpt>
      <trkpt lat="44.31139" lon="4.40183">
        <ele>262</ele>
        <time>2021-07-04T14:38:16Z</time>
      </trkpt>
      <trkpt lat="44.3113" lon="4.40185">
        <ele>261</ele>
        <time>2021-07-04T14:38:18Z</time>
      </trkpt>
      <trkpt lat="44.31119" lon="4.40174">
        <ele>260</ele>
        <time>2021-07-04T14:38:21Z</time>
      </trkpt>
      <trkpt lat="44.31114" lon="4.40161">
        <ele>259</ele>
        <time>2021-07-04T14:38:23Z</time>
      </trkpt>
      <trkpt lat="44.31104" lon="4.40146">
        <ele>259</ele>
        <time>2021-07-04T14:38:27Z</time>
      </trkpt>
      <trkpt lat="44.31071" lon="4.40109">
        <ele>258</ele>
        <time>2021-07-04T14:38:37Z</time>
      </trkpt>
      <trkpt lat="44.31049" lon="4.40103">
        <ele>257</ele>
        <time>2021-07-04T14:38:42Z</time>
      </trkpt>
      <trkpt lat="44.31015" lon="4.40134">
        <ele>255</ele>
        <time>2021-07-04T14:38:51Z</time>
      </trkpt>
      <trkpt lat="44.30997" lon="4.40145">
        <ele>255</ele>
        <time>2021-07-04T14:38:56Z</time>
      </trkpt>
      <trkpt lat="44.30973" lon="4.40145">
        <ele>256</ele>
        <time>2021-07-04T14:39:02Z</time>
      </trkpt>
      <trkpt lat="44.30956" lon="4.40133">
        <ele>257</ele>
        <time>2021-07-04T14:39:06Z</time>
      </trkpt>
      <trkpt lat="44.30939" lon="4.40036">
        <ele>251</ele>
        <time>2021-07-04T14:39:23Z</time>
      </trkpt>
      <trkpt lat="44.30932" lon="4.40022">
        <ele>250</ele>
        <time>2021-07-04T14:39:26Z</time>
      </trkpt>
      <trkpt lat="44.30912" lon="4.39997">
        <ele>248</ele>
        <time>2021-07-04T14:39:32Z</time>
      </trkpt>
      <trkpt lat="44.3089" lon="4.39993">
        <ele>249</ele>
        <time>2021-07-04T14:39:37Z</time>
      </trkpt>
      <trkpt lat="44.3087" lon="4.39978">
        <ele>250</ele>
        <time>2021-07-04T14:39:42Z</time>
      </trkpt>
      <trkpt lat="44.30858" lon="4.39964">
        <ele>250</ele>
        <time>2021-07-04T14:39:46Z</time>
      </trkpt>
      <trkpt lat="44.30831" lon="4.39955">
        <ele>250</ele>
        <time>2021-07-04T14:39:52Z</time>
      </trkpt>
      <trkpt lat="44.30765" lon="4.39924">
        <ele>246</ele>
        <time>2021-07-04T14:40:09Z</time>
      </trkpt>
      <trkpt lat="44.30737" lon="4.39917">
        <ele>245</ele>
        <time>2021-07-04T14:40:15Z</time>
      </trkpt>
      <trkpt lat="44.30675" lon="4.39917">
        <ele>245</ele>
        <time>2021-07-04T14:40:30Z</time>
      </trkpt>
      <trkpt lat="44.30663" lon="4.39901">
        <ele>245</ele>
        <time>2021-07-04T14:40:34Z</time>
      </trkpt>
      <trkpt lat="44.30654" lon="4.39872">
        <ele>244</ele>
        <time>2021-07-04T14:40:39Z</time>
      </trkpt>
      <trkpt lat="44.30645" lon="4.39825">
        <ele>242</ele>
        <time>2021-07-04T14:40:47Z</time>
      </trkpt>
      <trkpt lat="44.30633" lon="4.39807">
        <ele>243</ele>
        <time>2021-07-04T14:40:51Z</time>
      </trkpt>
      <trkpt lat="44.30613" lon="4.39792">
        <ele>242</ele>
        <time>2021-07-04T14:40:57Z</time>
      </trkpt>
      <trkpt lat="44.30589" lon="4.3978">
        <ele>241</ele>
        <time>2021-07-04T14:41:02Z</time>
      </trkpt>
      <trkpt lat="44.3058" lon="4.39756">
        <ele>240</ele>
        <time>2021-07-04T14:41:07Z</time>
      </trkpt>
      <trkpt lat="44.30578" lon="4.39686">
        <ele>239</ele>
        <time>2021-07-04T14:41:19Z</time>
      </trkpt>
      <trkpt lat="44.30582" lon="4.39646">
        <ele>240</ele>
        <time>2021-07-04T14:41:25Z</time>
      </trkpt>
      <trkpt lat="44.30574" lon="4.39614">
        <ele>241</ele>
        <time>2021-07-04T14:41:31Z</time>
      </trkpt>
      <trkpt lat="44.30558" lon="4.39601">
        <ele>241</ele>
        <time>2021-07-04T14:41:35Z</time>
      </trkpt>
      <trkpt lat="44.30535" lon="4.39603">
        <ele>240</ele>
        <time>2021-07-04T14:41:41Z</time>
      </trkpt>
      <trkpt lat="44.30478" lon="4.39625">
        <ele>237</ele>
        <time>2021-07-04T14:41:55Z</time>
      </trkpt>
      <trkpt lat="44.3044" lon="4.3965">
        <ele>235</ele>
        <time>2021-07-04T14:42:04Z</time>
      </trkpt>
      <trkpt lat="44.30414" lon="4.39657">
        <ele>233</ele>
        <time>2021-07-04T14:42:11Z</time>
      </trkpt>
      <trkpt lat="44.30382" lon="4.39726">
        <ele>231</ele>
        <time>2021-07-04T14:42:24Z</time>
      </trkpt>
      <trkpt lat="44.30356" lon="4.39749">
        <ele>229</ele>
        <time>2021-07-04T14:42:32Z</time>
      </trkpt>
      <trkpt lat="44.30334" lon="4.39749">
        <ele>226</ele>
        <time>2021-07-04T14:42:37Z</time>
      </trkpt>
      <trkpt lat="44.3032" lon="4.39745">
        <ele>225</ele>
        <time>2021-07-04T14:42:40Z</time>
      </trkpt>
      <trkpt lat="44.30305" lon="4.39733">
        <ele>224</ele>
        <time>2021-07-04T14:42:44Z</time>
      </trkpt>
      <trkpt lat="44.30296" lon="4.39713">
        <ele>223</ele>
        <time>2021-07-04T14:42:48Z</time>
      </trkpt>
      <trkpt lat="44.30291" lon="4.39684">
        <ele>221</ele>
        <time>2021-07-04T14:42:53Z</time>
      </trkpt>
      <trkpt lat="44.30302" lon="4.396">
        <ele>224</ele>
        <time>2021-07-04T14:43:07Z</time>
      </trkpt>
      <trkpt lat="44.30302" lon="4.39581">
        <ele>226</ele>
        <time>2021-07-04T14:43:10Z</time>
      </trkpt>
      <trkpt lat="44.30293" lon="4.3957">
        <ele>226</ele>
        <time>2021-07-04T14:43:13Z</time>
      </trkpt>
      <trkpt lat="44.30241" lon="4.39599">
        <ele>217</ele>
        <time>2021-07-04T14:43:26Z</time>
      </trkpt>
      <trkpt lat="44.30211" lon="4.39627">
        <ele>217</ele>
        <time>2021-07-04T14:43:35Z</time>
      </trkpt>
      <trkpt lat="44.30189" lon="4.39642">
        <ele>216</ele>
        <time>2021-07-04T14:43:40Z</time>
      </trkpt>
      <trkpt lat="44.30135" lon="4.39759">
        <ele>206</ele>
        <time>2021-07-04T14:44:04Z</time>
      </trkpt>
      <trkpt lat="44.30129" lon="4.39763">
        <ele>205</ele>
        <time>2021-07-04T14:44:05Z</time>
      </trkpt>
      <trkpt lat="44.30109" lon="4.39766">
        <ele>202</ele>
        <time>2021-07-04T14:44:10Z</time>
      </trkpt>
      <trkpt lat="44.30096" lon="4.39761">
        <ele>200</ele>
        <time>2021-07-04T14:44:13Z</time>
      </trkpt>
      <trkpt lat="44.30086" lon="4.3975">
        <ele>198</ele>
        <time>2021-07-04T14:44:16Z</time>
      </trkpt>
      <trkpt lat="44.30073" lon="4.39744">
        <ele>199</ele>
        <time>2021-07-04T14:44:19Z</time>
      </trkpt>
      <trkpt lat="44.30023" lon="4.39745">
        <ele>197</ele>
        <time>2021-07-04T14:44:31Z</time>
      </trkpt>
      <trkpt lat="44.30012" lon="4.39755">
        <ele>196</ele>
        <time>2021-07-04T14:44:34Z</time>
      </trkpt>
      <trkpt lat="44.29977" lon="4.39776">
        <ele>196</ele>
        <time>2021-07-04T14:44:43Z</time>
      </trkpt>
      <trkpt lat="44.29967" lon="4.39775">
        <ele>195</ele>
        <time>2021-07-04T14:44:45Z</time>
      </trkpt>
      <trkpt lat="44.29907" lon="4.39756">
        <ele>192</ele>
        <time>2021-07-04T14:45:00Z</time>
      </trkpt>
      <trkpt lat="44.29868" lon="4.39758">
        <ele>192</ele>
        <time>2021-07-04T14:45:09Z</time>
      </trkpt>
      <trkpt lat="44.29856" lon="4.39754">
        <ele>192</ele>
        <time>2021-07-04T14:45:12Z</time>
      </trkpt>
      <trkpt lat="44.29855" lon="4.39736">
        <ele>191</ele>
        <time>2021-07-04T14:45:15Z</time>
      </trkpt>
      <trkpt lat="44.29864" lon="4.39718">
        <ele>191</ele>
        <time>2021-07-04T14:45:18Z</time>
      </trkpt>
      <trkpt lat="44.2987" lon="4.3968">
        <ele>190</ele>
        <time>2021-07-04T14:45:25Z</time>
      </trkpt>
      <trkpt lat="44.29877" lon="4.39655">
        <ele>191</ele>
        <time>2021-07-04T14:45:29Z</time>
      </trkpt>
      <trkpt lat="44.29891" lon="4.3962">
        <ele>192</ele>
        <time>2021-07-04T14:45:36Z</time>
      </trkpt>
      <trkpt lat="44.29892" lon="4.396">
        <ele>192</ele>
        <time>2021-07-04T14:45:39Z</time>
      </trkpt>
      <trkpt lat="44.29882" lon="4.39584">
        <ele>192</ele>
        <time>2021-07-04T14:45:43Z</time>
      </trkpt>
      <trkpt lat="44.29863" lon="4.39542">
        <ele>189</ele>
        <time>2021-07-04T14:45:51Z</time>
      </trkpt>
      <trkpt lat="44.29818" lon="4.39477">
        <ele>183</ele>
        <time>2021-07-04T14:46:06Z</time>
      </trkpt>
      <trkpt lat="44.2979" lon="4.39447">
        <ele>181</ele>
        <time>2021-07-04T14:46:15Z</time>
      </trkpt>
      <trkpt lat="44.29719" lon="4.39412">
        <ele>173</ele>
        <time>2021-07-04T14:46:32Z</time>
      </trkpt>
      <trkpt lat="44.29712" lon="4.39382">
        <ele>173</ele>
        <time>2021-07-04T14:46:37Z</time>
      </trkpt>
      <trkpt lat="44.29709" lon="4.39344">
        <ele>173</ele>
        <time>2021-07-04T14:46:44Z</time>
      </trkpt>
      <trkpt lat="44.29694" lon="4.3933">
        <ele>173</ele>
        <time>2021-07-04T14:46:48Z</time>
      </trkpt>
      <trkpt lat="44.29655" lon="4.39318">
        <ele>173</ele>
        <time>2021-07-04T14:46:57Z</time>
      </trkpt>
      <trkpt lat="44.29635" lon="4.39319">
        <ele>172</ele>
        <time>2021-07-04T14:47:02Z</time>
      </trkpt>
      <trkpt lat="44.29594" lon="4.39328">
        <ele>169</ele>
        <time>2021-07-04T14:47:12Z</time>
      </trkpt>
      <trkpt lat="44.29582" lon="4.39325">
        <ele>170</ele>
        <time>2021-07-04T14:47:15Z</time>
      </trkpt>
      <trkpt lat="44.29567" lon="4.39315">
        <ele>171</ele>
        <time>2021-07-04T14:47:18Z</time>
      </trkpt>
      <trkpt lat="44.2953" lon="4.39313">
        <ele>169</ele>
        <time>2021-07-04T14:47:27Z</time>
      </trkpt>
      <trkpt lat="44.29473" lon="4.39295">
        <ele>168</ele>
        <time>2021-07-04T14:47:41Z</time>
      </trkpt>
      <trkpt lat="44.29458" lon="4.39286">
        <ele>168</ele>
        <time>2021-07-04T14:47:45Z</time>
      </trkpt>
      <trkpt lat="44.29448" lon="4.39294">
        <ele>166</ele>
        <time>2021-07-04T14:47:47Z</time>
      </trkpt>
      <trkpt lat="44.29447" lon="4.39332">
        <ele>163</ele>
        <time>2021-07-04T14:47:54Z</time>
      </trkpt>
      <trkpt lat="44.29371" lon="4.39357">
        <ele>164</ele>
        <time>2021-07-04T14:48:12Z</time>
      </trkpt>
      <trkpt lat="44.29345" lon="4.39372">
        <ele>164</ele>
        <time>2021-07-04T14:48:18Z</time>
      </trkpt>
      <trkpt lat="44.29303" lon="4.39409">
        <ele>162</ele>
        <time>2021-07-04T14:48:30Z</time>
      </trkpt>
      <trkpt lat="44.29258" lon="4.39444">
        <ele>161</ele>
        <time>2021-07-04T14:48:42Z</time>
      </trkpt>
      <trkpt lat="44.29229" lon="4.3946">
        <ele>162</ele>
        <time>2021-07-04T14:48:49Z</time>
      </trkpt>
      <trkpt lat="44.29217" lon="4.39479">
        <ele>162</ele>
        <time>2021-07-04T14:48:54Z</time>
      </trkpt>
      <trkpt lat="44.29189" lon="4.39503">
        <ele>162</ele>
        <time>2021-07-04T14:49:01Z</time>
      </trkpt>
      <trkpt lat="44.29155" lon="4.39506">
        <ele>160</ele>
        <time>2021-07-04T14:49:09Z</time>
      </trkpt>
      <trkpt lat="44.29125" lon="4.39512">
        <ele>159</ele>
        <time>2021-07-04T14:49:16Z</time>
      </trkpt>
      <trkpt lat="44.29097" lon="4.39533">
        <ele>158</ele>
        <time>2021-07-04T14:49:24Z</time>
      </trkpt>
      <trkpt lat="44.29066" lon="4.3957">
        <ele>156</ele>
        <time>2021-07-04T14:49:33Z</time>
      </trkpt>
      <trkpt lat="44.29039" lon="4.39618">
        <ele>156</ele>
        <time>2021-07-04T14:49:43Z</time>
      </trkpt>
      <trkpt lat="44.29003" lon="4.39767">
        <ele>152</ele>
        <time>2021-07-04T14:50:10Z</time>
      </trkpt>
      <trkpt lat="44.28956" lon="4.39897">
        <ele>150</ele>
        <time>2021-07-04T14:50:34Z</time>
      </trkpt>
      <trkpt lat="44.28933" lon="4.39944">
        <ele>150</ele>
        <time>2021-07-04T14:50:44Z</time>
      </trkpt>
      <trkpt lat="44.28899" lon="4.39955">
        <ele>149</ele>
        <time>2021-07-04T14:50:52Z</time>
      </trkpt>
      <trkpt lat="44.28831" lon="4.39964">
        <ele>148</ele>
        <time>2021-07-04T14:51:08Z</time>
      </trkpt>
      <trkpt lat="44.28793" lon="4.39995">
        <ele>146</ele>
        <time>2021-07-04T14:51:18Z</time>
      </trkpt>
      <trkpt lat="44.28747" lon="4.40045">
        <ele>145</ele>
        <time>2021-07-04T14:51:32Z</time>
      </trkpt>
      <trkpt lat="44.28765" lon="4.40128">
        <ele>151</ele>
        <time>2021-07-04T14:51:46Z</time>
      </trkpt>
      <trkpt lat="44.28777" lon="4.40168">
        <ele>154</ele>
        <time>2021-07-04T14:51:53Z</time>
      </trkpt>
      <trkpt lat="44.2885" lon="4.40274">
        <ele>162</ele>
        <time>2021-07-04T14:52:18Z</time>
      </trkpt>
      <trkpt lat="44.28879" lon="4.40322">
        <ele>166</ele>
        <time>2021-07-04T14:52:28Z</time>
      </trkpt>
      <trkpt lat="44.2889" lon="4.40362">
        <ele>167</ele>
        <time>2021-07-04T14:52:36Z</time>
      </trkpt>
      <trkpt lat="44.28894" lon="4.40398">
        <ele>169</ele>
        <time>2021-07-04T14:52:42Z</time>
      </trkpt>
      <trkpt lat="44.28892" lon="4.40444">
        <ele>174</ele>
        <time>2021-07-04T14:52:49Z</time>
      </trkpt>
      <trkpt lat="44.28874" lon="4.40451">
        <ele>179</ele>
        <time>2021-07-04T14:52:54Z</time>
      </trkpt>
      <trkpt lat="44.28849" lon="4.40547">
        <ele>189</ele>
        <time>2021-07-04T14:53:11Z</time>
      </trkpt>
      <trkpt lat="44.28825" lon="4.406">
        <ele>195</ele>
        <time>2021-07-04T14:53:21Z</time>
      </trkpt>
      <trkpt lat="44.28803" lon="4.40667">
        <ele>200</ele>
        <time>2021-07-04T14:53:34Z</time>
      </trkpt>
      <trkpt lat="44.28793" lon="4.40723">
        <ele>204</ele>
        <time>2021-07-04T14:53:43Z</time>
      </trkpt>
      <trkpt lat="44.28788" lon="4.40784">
        <ele>209</ele>
        <time>2021-07-04T14:53:54Z</time>
      </trkpt>
      <trkpt lat="44.28783" lon="4.40806">
        <ele>211</ele>
        <time>2021-07-04T14:53:57Z</time>
      </trkpt>
      <trkpt lat="44.28728" lon="4.40806">
        <ele>212</ele>
        <time>2021-07-04T14:54:10Z</time>
      </trkpt>
      <trkpt lat="44.28666" lon="4.40852">
        <ele>210</ele>
        <time>2021-07-04T14:54:27Z</time>
      </trkpt>
      <trkpt lat="44.28556" lon="4.40915">
        <ele>200</ele>
        <time>2021-07-04T14:54:54Z</time>
      </trkpt>
      <trkpt lat="44.28516" lon="4.40908">
        <ele>195</ele>
        <time>2021-07-04T14:55:04Z</time>
      </trkpt>
      <trkpt lat="44.28505" lon="4.4091">
        <ele>194</ele>
        <time>2021-07-04T14:55:06Z</time>
      </trkpt>
      <trkpt lat="44.28487" lon="4.40947">
        <ele>191</ele>
        <time>2021-07-04T14:55:14Z</time>
      </trkpt>
      <trkpt lat="44.28452" lon="4.40952">
        <ele>187</ele>
        <time>2021-07-04T14:55:22Z</time>
      </trkpt>
      <trkpt lat="44.28421" lon="4.40961">
        <ele>183</ele>
        <time>2021-07-04T14:55:29Z</time>
      </trkpt>
      <trkpt lat="44.28414" lon="4.40969">
        <ele>182</ele>
        <time>2021-07-04T14:55:32Z</time>
      </trkpt>
      <trkpt lat="44.28381" lon="4.4098">
        <ele>176</ele>
        <time>2021-07-04T14:55:40Z</time>
      </trkpt>
      <trkpt lat="44.28358" lon="4.40995">
        <ele>172</ele>
        <time>2021-07-04T14:55:45Z</time>
      </trkpt>
      <trkpt lat="44.28334" lon="4.41112">
        <ele>176</ele>
        <time>2021-07-04T14:56:06Z</time>
      </trkpt>
      <trkpt lat="44.28316" lon="4.41108">
        <ele>173</ele>
        <time>2021-07-04T14:56:10Z</time>
      </trkpt>
      <trkpt lat="44.28294" lon="4.41121">
        <ele>170</ele>
        <time>2021-07-04T14:56:16Z</time>
      </trkpt>
      <trkpt lat="44.28255" lon="4.41175">
        <ele>165</ele>
        <time>2021-07-04T14:56:28Z</time>
      </trkpt>
      <trkpt lat="44.28269" lon="4.41199">
        <ele>164</ele>
        <time>2021-07-04T14:56:34Z</time>
      </trkpt>
      <trkpt lat="44.28276" lon="4.41221">
        <ele>163</ele>
        <time>2021-07-04T14:56:38Z</time>
      </trkpt>
      <trkpt lat="44.28283" lon="4.41257">
        <ele>161</ele>
        <time>2021-07-04T14:56:44Z</time>
      </trkpt>
      <trkpt lat="44.28317" lon="4.41278">
        <ele>163</ele>
        <time>2021-07-04T14:56:53Z</time>
      </trkpt>
      <trkpt lat="44.28359" lon="4.41314">
        <ele>164</ele>
        <time>2021-07-04T14:57:04Z</time>
      </trkpt>
      <trkpt lat="44.28374" lon="4.41336">
        <ele>164</ele>
        <time>2021-07-04T14:57:09Z</time>
      </trkpt>
      <trkpt lat="44.28396" lon="4.41359">
        <ele>167</ele>
        <time>2021-07-04T14:57:16Z</time>
      </trkpt>
      <trkpt lat="44.28394" lon="4.41373">
        <ele>167</ele>
        <time>2021-07-04T14:57:18Z</time>
      </trkpt>
      <trkpt lat="44.28383" lon="4.41378">
        <ele>166</ele>
        <time>2021-07-04T14:57:21Z</time>
      </trkpt>
      <trkpt lat="44.28362" lon="4.4138">
        <ele>163</ele>
        <time>2021-07-04T14:57:26Z</time>
      </trkpt>
      <trkpt lat="44.28348" lon="4.41388">
        <ele>162</ele>
        <time>2021-07-04T14:57:29Z</time>
      </trkpt>
      <trkpt lat="44.28326" lon="4.41429">
        <ele>161</ele>
        <time>2021-07-04T14:57:38Z</time>
      </trkpt>
      <trkpt lat="44.28316" lon="4.41479">
        <ele>160</ele>
        <time>2021-07-04T14:57:46Z</time>
      </trkpt>
      <trkpt lat="44.28315" lon="4.41536">
        <ele>160</ele>
        <time>2021-07-04T14:57:56Z</time>
      </trkpt>
      <trkpt lat="44.28308" lon="4.41553">
        <ele>159</ele>
        <time>2021-07-04T14:57:59Z</time>
      </trkpt>
      <trkpt lat="44.28292" lon="4.41576">
        <ele>158</ele>
        <time>2021-07-04T14:58:05Z</time>
      </trkpt>
      <trkpt lat="44.28279" lon="4.41601">
        <ele>158</ele>
        <time>2021-07-04T14:58:10Z</time>
      </trkpt>
      <trkpt lat="44.2824" lon="4.41698">
        <ele>161</ele>
        <time>2021-07-04T14:58:28Z</time>
      </trkpt>
      <trkpt lat="44.2823" lon="4.41713">
        <ele>162</ele>
        <time>2021-07-04T14:58:32Z</time>
      </trkpt>
      <trkpt lat="44.28197" lon="4.41726">
        <ele>164</ele>
        <time>2021-07-04T14:58:40Z</time>
      </trkpt>
      <trkpt lat="44.28189" lon="4.41733">
        <ele>165</ele>
        <time>2021-07-04T14:58:42Z</time>
      </trkpt>
      <trkpt lat="44.28185" lon="4.41745">
        <ele>166</ele>
        <time>2021-07-04T14:58:44Z</time>
      </trkpt>
      <trkpt lat="44.28178" lon="4.41741">
        <ele>166</ele>
        <time>2021-07-04T14:58:46Z</time>
      </trkpt>
      <trkpt lat="44.28167" lon="4.4169">
        <ele>163</ele>
        <time>2021-07-04T14:58:55Z</time>
      </trkpt>
      <trkpt lat="44.2816" lon="4.41642">
        <ele>162</ele>
        <time>2021-07-04T14:59:03Z</time>
      </trkpt>
      <trkpt lat="44.28156" lon="4.41631">
        <ele>163</ele>
        <time>2021-07-04T14:59:05Z</time>
      </trkpt>
      <trkpt lat="44.28147" lon="4.41635">
        <ele>165</ele>
        <time>2021-07-04T14:59:07Z</time>
      </trkpt>
      <trkpt lat="44.28149" lon="4.41652">
        <ele>166</ele>
        <time>2021-07-04T14:59:10Z</time>
      </trkpt>
      <trkpt lat="44.28147" lon="4.41746">
        <ele>171</ele>
        <time>2021-07-04T14:59:26Z</time>
      </trkpt>
      <trkpt lat="44.28129" lon="4.41789">
        <ele>175</ele>
        <time>2021-07-04T14:59:34Z</time>
      </trkpt>
      <trkpt lat="44.28124" lon="4.41808">
        <ele>175</ele>
        <time>2021-07-04T14:59:38Z</time>
      </trkpt>
      <trkpt lat="44.28118" lon="4.41818">
        <ele>176</ele>
        <time>2021-07-04T14:59:40Z</time>
      </trkpt>
      <trkpt lat="44.28082" lon="4.41847">
        <ele>181</ele>
        <time>2021-07-04T14:59:49Z</time>
      </trkpt>
      <trkpt lat="44.2807" lon="4.41863">
        <ele>182</ele>
        <time>2021-07-04T14:59:53Z</time>
      </trkpt>
      <trkpt lat="44.28038" lon="4.41923">
        <ele>185</ele>
        <time>2021-07-04T15:00:06Z</time>
      </trkpt>
      <trkpt lat="44.28013" lon="4.4198">
        <ele>192</ele>
        <time>2021-07-04T15:00:17Z</time>
      </trkpt>
      <trkpt lat="44.27995" lon="4.4201">
        <ele>196</ele>
        <time>2021-07-04T15:00:24Z</time>
      </trkpt>
      <trkpt lat="44.27979" lon="4.42044">
        <ele>201</ele>
        <time>2021-07-04T15:00:30Z</time>
      </trkpt>
      <trkpt lat="44.27972" lon="4.42062">
        <ele>203</ele>
        <time>2021-07-04T15:00:34Z</time>
      </trkpt>
      <trkpt lat="44.27972" lon="4.42113">
        <ele>207</ele>
        <time>2021-07-04T15:00:42Z</time>
      </trkpt>
      <trkpt lat="44.27969" lon="4.42131">
        <ele>209</ele>
        <time>2021-07-04T15:00:45Z</time>
      </trkpt>
      <trkpt lat="44.27958" lon="4.42181">
        <ele>211</ele>
        <time>2021-07-04T15:00:54Z</time>
      </trkpt>
      <trkpt lat="44.27942" lon="4.42234">
        <ele>211</ele>
        <time>2021-07-04T15:01:04Z</time>
      </trkpt>
      <trkpt lat="44.27865" lon="4.42215">
        <ele>213</ele>
        <time>2021-07-04T15:01:22Z</time>
      </trkpt>
      <trkpt lat="44.2783" lon="4.4221">
        <ele>213</ele>
        <time>2021-07-04T15:01:30Z</time>
      </trkpt>
      <trkpt lat="44.27807" lon="4.42204">
        <ele>213</ele>
        <time>2021-07-04T15:01:36Z</time>
      </trkpt>
      <trkpt lat="44.27787" lon="4.42209">
        <ele>213</ele>
        <time>2021-07-04T15:01:40Z</time>
      </trkpt>
      <trkpt lat="44.27746" lon="4.42258">
        <ele>211</ele>
        <time>2021-07-04T15:01:53Z</time>
      </trkpt>
      <trkpt lat="44.27728" lon="4.42284">
        <ele>209</ele>
        <time>2021-07-04T15:01:59Z</time>
      </trkpt>
      <trkpt lat="44.2771" lon="4.42296">
        <ele>207</ele>
        <time>2021-07-04T15:02:04Z</time>
      </trkpt>
      <trkpt lat="44.27695" lon="4.4232">
        <ele>206</ele>
        <time>2021-07-04T15:02:09Z</time>
      </trkpt>
      <trkpt lat="44.27683" lon="4.42311">
        <ele>205</ele>
        <time>2021-07-04T15:02:12Z</time>
      </trkpt>
      <trkpt lat="44.27653" lon="4.42302">
        <ele>202</ele>
        <time>2021-07-04T15:02:19Z</time>
      </trkpt>
      <trkpt lat="44.27608" lon="4.42292">
        <ele>197</ele>
        <time>2021-07-04T15:02:30Z</time>
      </trkpt>
      <trkpt lat="44.27567" lon="4.42278">
        <ele>191</ele>
        <time>2021-07-04T15:02:40Z</time>
      </trkpt>
      <trkpt lat="44.27503" lon="4.42264">
        <ele>184</ele>
        <time>2021-07-04T15:02:55Z</time>
      </trkpt>
      <trkpt lat="44.27485" lon="4.42241">
        <ele>182</ele>
        <time>2021-07-04T15:03:01Z</time>
      </trkpt>
      <trkpt lat="44.2743" lon="4.42199">
        <ele>175</ele>
        <time>2021-07-04T15:03:15Z</time>
      </trkpt>
      <trkpt lat="44.27403" lon="4.42196">
        <ele>171</ele>
        <time>2021-07-04T15:03:22Z</time>
      </trkpt>
      <trkpt lat="44.27376" lon="4.42169">
        <ele>164</ele>
        <time>2021-07-04T15:03:29Z</time>
      </trkpt>
      <trkpt lat="44.27358" lon="4.42162">
        <ele>161</ele>
        <time>2021-07-04T15:03:34Z</time>
      </trkpt>
      <trkpt lat="44.27343" lon="4.42161">
        <ele>160</ele>
        <time>2021-07-04T15:03:37Z</time>
      </trkpt>
      <trkpt lat="44.27311" lon="4.42168">
        <ele>157</ele>
        <time>2021-07-04T15:03:45Z</time>
      </trkpt>
      <trkpt lat="44.27254" lon="4.42192">
        <ele>150</ele>
        <time>2021-07-04T15:03:59Z</time>
      </trkpt>
      <trkpt lat="44.27204" lon="4.42205">
        <ele>141</ele>
        <time>2021-07-04T15:04:11Z</time>
      </trkpt>
      <trkpt lat="44.27187" lon="4.42217">
        <ele>137</ele>
        <time>2021-07-04T15:04:15Z</time>
      </trkpt>
      <trkpt lat="44.27167" lon="4.42245">
        <ele>134</ele>
        <time>2021-07-04T15:04:22Z</time>
      </trkpt>
      <trkpt lat="44.27134" lon="4.4227">
        <ele>129</ele>
        <time>2021-07-04T15:04:31Z</time>
      </trkpt>
      <trkpt lat="44.27134" lon="4.42259">
        <ele>127</ele>
        <time>2021-07-04T15:04:32Z</time>
      </trkpt>
      <trkpt lat="44.27141" lon="4.42241">
        <ele>128</ele>
        <time>2021-07-04T15:04:36Z</time>
      </trkpt>
      <trkpt lat="44.27136" lon="4.42239">
        <ele>127</ele>
        <time>2021-07-04T15:04:37Z</time>
      </trkpt>
      <trkpt lat="44.27125" lon="4.42242">
        <ele>124</ele>
        <time>2021-07-04T15:04:40Z</time>
      </trkpt>
      <trkpt lat="44.27119" lon="4.42239">
        <ele>123</ele>
        <time>2021-07-04T15:04:41Z</time>
      </trkpt>
      <trkpt lat="44.27124" lon="4.42211">
        <ele>122</ele>
        <time>2021-07-04T15:04:46Z</time>
      </trkpt>
      <trkpt lat="44.27125" lon="4.42148">
        <ele>119</ele>
        <time>2021-07-04T15:04:56Z</time>
      </trkpt>
      <trkpt lat="44.27138" lon="4.4211">
        <ele>119</ele>
        <time>2021-07-04T15:05:04Z</time>
      </trkpt>
      <trkpt lat="44.27125" lon="4.42117">
        <ele>117</ele>
        <time>2021-07-04T15:05:07Z</time>
      </trkpt>
      <trkpt lat="44.27113" lon="4.42137">
        <ele>115</ele>
        <time>2021-07-04T15:05:11Z</time>
      </trkpt>
      <trkpt lat="44.27104" lon="4.4216">
        <ele>115</ele>
        <time>2021-07-04T15:05:16Z</time>
      </trkpt>
      <trkpt lat="44.27101" lon="4.4223">
        <ele>118</ele>
        <time>2021-07-04T15:05:27Z</time>
      </trkpt>
      <trkpt lat="44.27091" lon="4.4225">
        <ele>117</ele>
        <time>2021-07-04T15:05:31Z</time>
      </trkpt>
      <trkpt lat="44.27055" lon="4.42251">
        <ele>110</ele>
        <time>2021-07-04T15:05:40Z</time>
      </trkpt>
      <trkpt lat="44.27034" lon="4.42259">
        <ele>106</ele>
        <time>2021-07-04T15:05:45Z</time>
      </trkpt>
      <trkpt lat="44.27001" lon="4.42239">
        <ele>99</ele>
        <time>2021-07-04T15:05:53Z</time>
      </trkpt>
      <trkpt lat="44.2698" lon="4.42255">
        <ele>98</ele>
        <time>2021-07-04T15:05:59Z</time>
      </trkpt>
      <trkpt lat="44.26875" lon="4.4239">
        <ele>99</ele>
        <time>2021-07-04T15:06:32Z</time>
      </trkpt>
      <trkpt lat="44.26857" lon="4.42405">
        <ele>99</ele>
        <time>2021-07-04T15:06:37Z</time>
      </trkpt>
      <trkpt lat="44.26837" lon="4.42436">
        <ele>99</ele>
        <time>2021-07-04T15:06:44Z</time>
      </trkpt>
      <trkpt lat="44.26825" lon="4.42428">
        <ele>98</ele>
        <time>2021-07-04T15:06:47Z</time>
      </trkpt>
      <trkpt lat="44.26793" lon="4.42421">
        <ele>97</ele>
        <time>2021-07-04T15:06:55Z</time>
      </trkpt>
      <trkpt lat="44.26765" lon="4.42405">
        <ele>95</ele>
        <time>2021-07-04T15:07:02Z</time>
      </trkpt>
      <trkpt lat="44.26757" lon="4.42378">
        <ele>95</ele>
        <time>2021-07-04T15:07:07Z</time>
      </trkpt>
      <trkpt lat="44.2675" lon="4.42338">
        <ele>94</ele>
        <time>2021-07-04T15:07:14Z</time>
      </trkpt>
      <trkpt lat="44.26704" lon="4.42286">
        <ele>92</ele>
        <time>2021-07-04T15:07:27Z</time>
      </trkpt>
      <trkpt lat="44.26702" lon="4.42264">
        <ele>92</ele>
        <time>2021-07-04T15:07:31Z</time>
      </trkpt>
      <trkpt lat="44.26659" lon="4.42169">
        <ele>90</ele>
        <time>2021-07-04T15:07:50Z</time>
      </trkpt>
      <trkpt lat="44.26633" lon="4.42147">
        <ele>92</ele>
        <time>2021-07-04T15:07:57Z</time>
      </trkpt>
      <trkpt lat="44.26618" lon="4.42147">
        <ele>91</ele>
        <time>2021-07-04T15:08:00Z</time>
      </trkpt>
      <trkpt lat="44.26594" lon="4.42154">
        <ele>91</ele>
        <time>2021-07-04T15:08:06Z</time>
      </trkpt>
      <trkpt lat="44.26584" lon="4.42161">
        <ele>91</ele>
        <time>2021-07-04T15:08:09Z</time>
      </trkpt>
      <trkpt lat="44.26568" lon="4.42149">
        <ele>91</ele>
        <time>2021-07-04T15:08:13Z</time>
      </trkpt>
      <trkpt lat="44.26556" lon="4.42118">
        <ele>90</ele>
        <time>2021-07-04T15:08:19Z</time>
      </trkpt>
      <trkpt lat="44.26543" lon="4.42114">
        <ele>90</ele>
        <time>2021-07-04T15:08:22Z</time>
      </trkpt>
      <trkpt lat="44.26534" lon="4.42099">
        <ele>89</ele>
        <time>2021-07-04T15:08:25Z</time>
      </trkpt>
      <trkpt lat="44.2652" lon="4.42066">
        <ele>89</ele>
        <time>2021-07-04T15:08:32Z</time>
      </trkpt>
      <trkpt lat="44.26474" lon="4.42061">
        <ele>89</ele>
        <time>2021-07-04T15:08:42Z</time>
      </trkpt>
      <trkpt lat="44.26453" lon="4.42062">
        <ele>89</ele>
        <time>2021-07-04T15:08:47Z</time>
      </trkpt>
      <trkpt lat="44.26434" lon="4.42057">
        <ele>90</ele>
        <time>2021-07-04T15:08:52Z</time>
      </trkpt>
      <trkpt lat="44.26421" lon="4.42075">
        <ele>91</ele>
        <time>2021-07-04T15:08:56Z</time>
      </trkpt>
      <trkpt lat="44.26324" lon="4.42033">
        <ele>88</ele>
        <time>2021-07-04T15:09:20Z</time>
      </trkpt>
      <trkpt lat="44.26207" lon="4.4201">
        <ele>92</ele>
        <time>2021-07-04T15:09:47Z</time>
      </trkpt>
    </trkseg>
  </trk>
</gpx>